<?xml version="1.0" encoding="UTF-8" standalone="no" ?>
<gpx xmlns="http://www.topografix.com/GPX/1/1" xmlns:xsi="http://www.w3.org/2001/XMLSchema-instance" xsi:schemaLocation="http://www.topografix.com/GPX/1/1 http://www.topografix.com/GPX/1/1/gpx.xsd" version="1.1" creator="VisuGPX - https://www.visugpx.com">
  <metadata>
    <name>Aurelien reco 2020</name>
    <desc><![CDATA[
]]></desc>
  </metadata>
  <trk>
    <name><![CDATA[Aurelien reco 2020]]></name>
    <trkseg>
      <trkpt lat="43.46725" lon="5.74527">
        <ele>303.35</ele>
        <time>2020-02-18T07:39:27Z</time>
      </trkpt>
      <trkpt lat="43.46725" lon="5.74527">
        <ele>303.35</ele>
        <time>2020-02-18T07:39:28Z</time>
      </trkpt>
      <trkpt lat="43.46721" lon="5.74532">
        <ele>303.28</ele>
        <time>2020-02-18T07:39:42Z</time>
      </trkpt>
      <trkpt lat="43.46709" lon="5.74552">
        <ele>303.53</ele>
        <time>2020-02-18T07:39:59Z</time>
      </trkpt>
      <trkpt lat="43.46703" lon="5.74569">
        <ele>304.13</ele>
        <time>2020-02-18T07:40:18Z</time>
      </trkpt>
      <trkpt lat="43.46705" lon="5.74574">
        <ele>303.99</ele>
        <time>2020-02-18T07:40:50Z</time>
      </trkpt>
      <trkpt lat="43.46703" lon="5.74583">
        <ele>304.08</ele>
        <time>2020-02-18T07:41:08Z</time>
      </trkpt>
      <trkpt lat="43.46693" lon="5.7459">
        <ele>304.63</ele>
        <time>2020-02-18T07:41:25Z</time>
      </trkpt>
      <trkpt lat="43.46674" lon="5.74589">
        <ele>305.51</ele>
        <time>2020-02-18T07:41:39Z</time>
      </trkpt>
      <trkpt lat="43.46659" lon="5.74595">
        <ele>306.1</ele>
        <time>2020-02-18T07:41:48Z</time>
      </trkpt>
      <trkpt lat="43.46637" lon="5.74603">
        <ele>308.22</ele>
        <time>2020-02-18T07:42:05Z</time>
      </trkpt>
      <trkpt lat="43.46629" lon="5.74606">
        <ele>308.63</ele>
        <time>2020-02-18T07:42:11Z</time>
      </trkpt>
      <trkpt lat="43.46621" lon="5.7461">
        <ele>308.99</ele>
        <time>2020-02-18T07:42:18Z</time>
      </trkpt>
      <trkpt lat="43.46609" lon="5.74617">
        <ele>310.21</ele>
        <time>2020-02-18T07:42:28Z</time>
      </trkpt>
      <trkpt lat="43.46594" lon="5.74624">
        <ele>311.68</ele>
        <time>2020-02-18T07:42:41Z</time>
      </trkpt>
      <trkpt lat="43.46592" lon="5.74626">
        <ele>311.99</ele>
        <time>2020-02-18T07:42:43Z</time>
      </trkpt>
      <trkpt lat="43.46575" lon="5.74633">
        <ele>313.3</ele>
        <time>2020-02-18T07:42:57Z</time>
      </trkpt>
      <trkpt lat="43.46572" lon="5.74634">
        <ele>313.53</ele>
        <time>2020-02-18T07:42:59Z</time>
      </trkpt>
      <trkpt lat="43.46562" lon="5.74636">
        <ele>314.22</ele>
        <time>2020-02-18T07:43:06Z</time>
      </trkpt>
      <trkpt lat="43.4654" lon="5.74644">
        <ele>315.52</ele>
        <time>2020-02-18T07:43:24Z</time>
      </trkpt>
      <trkpt lat="43.4652" lon="5.74653">
        <ele>316.82</ele>
        <time>2020-02-18T07:43:39Z</time>
      </trkpt>
      <trkpt lat="43.46502" lon="5.7466">
        <ele>318.45</ele>
        <time>2020-02-18T07:43:53Z</time>
      </trkpt>
      <trkpt lat="43.46487" lon="5.74667">
        <ele>319.42</ele>
        <time>2020-02-18T07:44:05Z</time>
      </trkpt>
      <trkpt lat="43.46471" lon="5.74672">
        <ele>320.28</ele>
        <time>2020-02-18T07:44:17Z</time>
      </trkpt>
      <trkpt lat="43.46466" lon="5.74674">
        <ele>320.59</ele>
        <time>2020-02-18T07:44:21Z</time>
      </trkpt>
      <trkpt lat="43.46444" lon="5.74682">
        <ele>322.26</ele>
        <time>2020-02-18T07:44:39Z</time>
      </trkpt>
      <trkpt lat="43.46434" lon="5.74686">
        <ele>322.81</ele>
        <time>2020-02-18T07:44:46Z</time>
      </trkpt>
      <trkpt lat="43.46422" lon="5.74691">
        <ele>323.62</ele>
        <time>2020-02-18T07:44:55Z</time>
      </trkpt>
      <trkpt lat="43.46406" lon="5.74701">
        <ele>324.69</ele>
        <time>2020-02-18T07:45:08Z</time>
      </trkpt>
      <trkpt lat="43.46391" lon="5.74707">
        <ele>325.64</ele>
        <time>2020-02-18T07:45:22Z</time>
      </trkpt>
      <trkpt lat="43.46377" lon="5.74713">
        <ele>326.63</ele>
        <time>2020-02-18T07:45:33Z</time>
      </trkpt>
      <trkpt lat="43.46368" lon="5.74716">
        <ele>327.02</ele>
        <time>2020-02-18T07:45:40Z</time>
      </trkpt>
      <trkpt lat="43.46361" lon="5.74717">
        <ele>327.49</ele>
        <time>2020-02-18T07:45:45Z</time>
      </trkpt>
      <trkpt lat="43.46341" lon="5.74724">
        <ele>328.71</ele>
        <time>2020-02-18T07:46:00Z</time>
      </trkpt>
      <trkpt lat="43.46322" lon="5.74731">
        <ele>329.97</ele>
        <time>2020-02-18T07:46:15Z</time>
      </trkpt>
      <trkpt lat="43.46317" lon="5.74731">
        <ele>330.39</ele>
        <time>2020-02-18T07:46:19Z</time>
      </trkpt>
      <trkpt lat="43.46313" lon="5.74732">
        <ele>330.56</ele>
        <time>2020-02-18T07:46:22Z</time>
      </trkpt>
      <trkpt lat="43.46302" lon="5.74739">
        <ele>330.91</ele>
        <time>2020-02-18T07:46:31Z</time>
      </trkpt>
      <trkpt lat="43.46295" lon="5.74741">
        <ele>331.14</ele>
        <time>2020-02-18T07:46:36Z</time>
      </trkpt>
      <trkpt lat="43.46286" lon="5.74744">
        <ele>331.4</ele>
        <time>2020-02-18T07:46:43Z</time>
      </trkpt>
      <trkpt lat="43.46265" lon="5.74753">
        <ele>332.25</ele>
        <time>2020-02-18T07:46:59Z</time>
      </trkpt>
      <trkpt lat="43.46263" lon="5.74754">
        <ele>332.32</ele>
        <time>2020-02-18T07:47:00Z</time>
      </trkpt>
      <trkpt lat="43.46256" lon="5.74756">
        <ele>332.71</ele>
        <time>2020-02-18T07:47:06Z</time>
      </trkpt>
      <trkpt lat="43.46233" lon="5.74761">
        <ele>334.03</ele>
        <time>2020-02-18T07:47:22Z</time>
      </trkpt>
      <trkpt lat="43.46221" lon="5.74764">
        <ele>334.7</ele>
        <time>2020-02-18T07:47:31Z</time>
      </trkpt>
      <trkpt lat="43.46204" lon="5.74775">
        <ele>335.82</ele>
        <time>2020-02-18T07:47:46Z</time>
      </trkpt>
      <trkpt lat="43.46189" lon="5.74788">
        <ele>336.91</ele>
        <time>2020-02-18T07:47:59Z</time>
      </trkpt>
      <trkpt lat="43.46182" lon="5.7479">
        <ele>338.01</ele>
        <time>2020-02-18T07:48:05Z</time>
      </trkpt>
      <trkpt lat="43.46178" lon="5.74792">
        <ele>338.46</ele>
        <time>2020-02-18T07:48:09Z</time>
      </trkpt>
      <trkpt lat="43.46169" lon="5.74792">
        <ele>339.61</ele>
        <time>2020-02-18T07:48:17Z</time>
      </trkpt>
      <trkpt lat="43.46147" lon="5.74791">
        <ele>340.59</ele>
        <time>2020-02-18T07:48:34Z</time>
      </trkpt>
      <trkpt lat="43.46142" lon="5.74794">
        <ele>340.8</ele>
        <time>2020-02-18T07:48:39Z</time>
      </trkpt>
      <trkpt lat="43.46134" lon="5.74803">
        <ele>341.14</ele>
        <time>2020-02-18T07:48:54Z</time>
      </trkpt>
      <trkpt lat="43.46136" lon="5.74796">
        <ele>340.85</ele>
        <time>2020-02-18T07:49:11Z</time>
      </trkpt>
      <trkpt lat="43.46134" lon="5.7481">
        <ele>340.91</ele>
        <time>2020-02-18T07:49:22Z</time>
      </trkpt>
      <trkpt lat="43.46133" lon="5.74838">
        <ele>341.59</ele>
        <time>2020-02-18T07:49:37Z</time>
      </trkpt>
      <trkpt lat="43.46134" lon="5.74863">
        <ele>342.38</ele>
        <time>2020-02-18T07:49:50Z</time>
      </trkpt>
      <trkpt lat="43.46134" lon="5.74888">
        <ele>343.75</ele>
        <time>2020-02-18T07:50:04Z</time>
      </trkpt>
      <trkpt lat="43.46131" lon="5.74907">
        <ele>344.23</ele>
        <time>2020-02-18T07:50:16Z</time>
      </trkpt>
      <trkpt lat="43.46132" lon="5.74909">
        <ele>344.24</ele>
        <time>2020-02-18T07:50:17Z</time>
      </trkpt>
      <trkpt lat="43.46132" lon="5.74917">
        <ele>344.36</ele>
        <time>2020-02-18T07:50:21Z</time>
      </trkpt>
      <trkpt lat="43.46132" lon="5.74923">
        <ele>344.62</ele>
        <time>2020-02-18T07:50:24Z</time>
      </trkpt>
      <trkpt lat="43.4613" lon="5.74943">
        <ele>345.27</ele>
        <time>2020-02-18T07:50:36Z</time>
      </trkpt>
      <trkpt lat="43.4612" lon="5.74964">
        <ele>347.03</ele>
        <time>2020-02-18T07:50:50Z</time>
      </trkpt>
      <trkpt lat="43.4611" lon="5.74984">
        <ele>348.39</ele>
        <time>2020-02-18T07:51:05Z</time>
      </trkpt>
      <trkpt lat="43.46095" lon="5.75006">
        <ele>350.55</ele>
        <time>2020-02-18T07:51:22Z</time>
      </trkpt>
      <trkpt lat="43.46079" lon="5.75026">
        <ele>351.89</ele>
        <time>2020-02-18T07:51:36Z</time>
      </trkpt>
      <trkpt lat="43.46064" lon="5.75043">
        <ele>354.06</ele>
        <time>2020-02-18T07:51:50Z</time>
      </trkpt>
      <trkpt lat="43.46049" lon="5.75051">
        <ele>355.27</ele>
        <time>2020-02-18T07:52:03Z</time>
      </trkpt>
      <trkpt lat="43.46029" lon="5.75051">
        <ele>357.13</ele>
        <time>2020-02-18T07:52:18Z</time>
      </trkpt>
      <trkpt lat="43.46024" lon="5.75048">
        <ele>357.6</ele>
        <time>2020-02-18T07:52:22Z</time>
      </trkpt>
      <trkpt lat="43.46014" lon="5.75037">
        <ele>359.71</ele>
        <time>2020-02-18T07:52:34Z</time>
      </trkpt>
      <trkpt lat="43.46013" lon="5.75034">
        <ele>359.95</ele>
        <time>2020-02-18T07:52:37Z</time>
      </trkpt>
      <trkpt lat="43.46007" lon="5.75021">
        <ele>360.84</ele>
        <time>2020-02-18T07:52:48Z</time>
      </trkpt>
      <trkpt lat="43.45999" lon="5.75008">
        <ele>361.7</ele>
        <time>2020-02-18T07:53:00Z</time>
      </trkpt>
      <trkpt lat="43.45998" lon="5.75007">
        <ele>361.81</ele>
        <time>2020-02-18T07:53:01Z</time>
      </trkpt>
      <trkpt lat="43.4598" lon="5.75004">
        <ele>363.31</ele>
        <time>2020-02-18T07:53:19Z</time>
      </trkpt>
      <trkpt lat="43.45965" lon="5.75011">
        <ele>366.46</ele>
        <time>2020-02-18T07:53:37Z</time>
      </trkpt>
      <trkpt lat="43.45961" lon="5.75011">
        <ele>367.24</ele>
        <time>2020-02-18T07:53:40Z</time>
      </trkpt>
      <trkpt lat="43.45939" lon="5.75024">
        <ele>370.1</ele>
        <time>2020-02-18T07:54:03Z</time>
      </trkpt>
      <trkpt lat="43.45924" lon="5.75034">
        <ele>371.53</ele>
        <time>2020-02-18T07:54:19Z</time>
      </trkpt>
      <trkpt lat="43.45897" lon="5.7505">
        <ele>371.8</ele>
        <time>2020-02-18T07:54:41Z</time>
      </trkpt>
      <trkpt lat="43.45879" lon="5.75054">
        <ele>372.59</ele>
        <time>2020-02-18T07:54:55Z</time>
      </trkpt>
      <trkpt lat="43.45858" lon="5.75065">
        <ele>373.66</ele>
        <time>2020-02-18T07:55:15Z</time>
      </trkpt>
      <trkpt lat="43.45839" lon="5.75087">
        <ele>375.44</ele>
        <time>2020-02-18T07:55:36Z</time>
      </trkpt>
      <trkpt lat="43.45838" lon="5.75092">
        <ele>375.64</ele>
        <time>2020-02-18T07:55:38Z</time>
      </trkpt>
      <trkpt lat="43.45819" lon="5.75125">
        <ele>377.5</ele>
        <time>2020-02-18T07:55:58Z</time>
      </trkpt>
      <trkpt lat="43.45809" lon="5.75138">
        <ele>378.44</ele>
        <time>2020-02-18T07:56:10Z</time>
      </trkpt>
      <trkpt lat="43.45798" lon="5.7515">
        <ele>379.62</ele>
        <time>2020-02-18T07:56:21Z</time>
      </trkpt>
      <trkpt lat="43.45778" lon="5.75154">
        <ele>381.43</ele>
        <time>2020-02-18T07:56:37Z</time>
      </trkpt>
      <trkpt lat="43.45771" lon="5.75157">
        <ele>382</ele>
        <time>2020-02-18T07:56:42Z</time>
      </trkpt>
      <trkpt lat="43.45768" lon="5.75158">
        <ele>382.22</ele>
        <time>2020-02-18T07:56:44Z</time>
      </trkpt>
      <trkpt lat="43.45757" lon="5.75168">
        <ele>382.62</ele>
        <time>2020-02-18T07:56:51Z</time>
      </trkpt>
      <trkpt lat="43.45747" lon="5.75188">
        <ele>384.13</ele>
        <time>2020-02-18T07:57:06Z</time>
      </trkpt>
      <trkpt lat="43.45741" lon="5.75221">
        <ele>386.2</ele>
        <time>2020-02-18T07:57:25Z</time>
      </trkpt>
      <trkpt lat="43.45738" lon="5.75248">
        <ele>388.23</ele>
        <time>2020-02-18T07:57:43Z</time>
      </trkpt>
      <trkpt lat="43.45728" lon="5.75282">
        <ele>389.69</ele>
        <time>2020-02-18T07:58:04Z</time>
      </trkpt>
      <trkpt lat="43.45709" lon="5.75312">
        <ele>391.47</ele>
        <time>2020-02-18T07:58:22Z</time>
      </trkpt>
      <trkpt lat="43.45697" lon="5.75336">
        <ele>392.63</ele>
        <time>2020-02-18T07:58:39Z</time>
      </trkpt>
      <trkpt lat="43.4569" lon="5.75362">
        <ele>392.68</ele>
        <time>2020-02-18T07:59:00Z</time>
      </trkpt>
      <trkpt lat="43.45691" lon="5.7537">
        <ele>392.45</ele>
        <time>2020-02-18T07:59:03Z</time>
      </trkpt>
      <trkpt lat="43.45697" lon="5.75378">
        <ele>392.39</ele>
        <time>2020-02-18T07:59:09Z</time>
      </trkpt>
      <trkpt lat="43.45702" lon="5.75388">
        <ele>392.33</ele>
        <time>2020-02-18T07:59:18Z</time>
      </trkpt>
      <trkpt lat="43.45721" lon="5.75386">
        <ele>393.33</ele>
        <time>2020-02-18T07:59:33Z</time>
      </trkpt>
      <trkpt lat="43.45725" lon="5.75388">
        <ele>393.68</ele>
        <time>2020-02-18T07:59:36Z</time>
      </trkpt>
      <trkpt lat="43.45739" lon="5.75406">
        <ele>395.42</ele>
        <time>2020-02-18T07:59:50Z</time>
      </trkpt>
      <trkpt lat="43.45736" lon="5.75434">
        <ele>397.62</ele>
        <time>2020-02-18T08:00:07Z</time>
      </trkpt>
      <trkpt lat="43.45726" lon="5.75466">
        <ele>400.4</ele>
        <time>2020-02-18T08:00:29Z</time>
      </trkpt>
      <trkpt lat="43.45719" lon="5.75487">
        <ele>402.97</ele>
        <time>2020-02-18T08:00:45Z</time>
      </trkpt>
      <trkpt lat="43.45713" lon="5.7551">
        <ele>405.53</ele>
        <time>2020-02-18T08:01:02Z</time>
      </trkpt>
      <trkpt lat="43.45708" lon="5.75541">
        <ele>408.64</ele>
        <time>2020-02-18T08:01:22Z</time>
      </trkpt>
      <trkpt lat="43.45706" lon="5.75573">
        <ele>411.77</ele>
        <time>2020-02-18T08:01:40Z</time>
      </trkpt>
      <trkpt lat="43.45703" lon="5.75588">
        <ele>413.76</ele>
        <time>2020-02-18T08:01:52Z</time>
      </trkpt>
      <trkpt lat="43.45701" lon="5.75611">
        <ele>415.07</ele>
        <time>2020-02-18T08:02:04Z</time>
      </trkpt>
      <trkpt lat="43.45702" lon="5.75628">
        <ele>416.52</ele>
        <time>2020-02-18T08:02:16Z</time>
      </trkpt>
      <trkpt lat="43.45699" lon="5.7565">
        <ele>419.5</ele>
        <time>2020-02-18T08:02:34Z</time>
      </trkpt>
      <trkpt lat="43.45692" lon="5.75668">
        <ele>422.46</ele>
        <time>2020-02-18T08:02:51Z</time>
      </trkpt>
      <trkpt lat="43.45686" lon="5.75698">
        <ele>424.72</ele>
        <time>2020-02-18T08:03:10Z</time>
      </trkpt>
      <trkpt lat="43.4568" lon="5.75727">
        <ele>426.77</ele>
        <time>2020-02-18T08:03:28Z</time>
      </trkpt>
      <trkpt lat="43.45679" lon="5.75759">
        <ele>429.15</ele>
        <time>2020-02-18T08:03:47Z</time>
      </trkpt>
      <trkpt lat="43.45681" lon="5.75769">
        <ele>429.76</ele>
        <time>2020-02-18T08:03:53Z</time>
      </trkpt>
      <trkpt lat="43.45683" lon="5.75772">
        <ele>429.83</ele>
        <time>2020-02-18T08:03:55Z</time>
      </trkpt>
      <trkpt lat="43.45691" lon="5.75794">
        <ele>429.77</ele>
        <time>2020-02-18T08:04:07Z</time>
      </trkpt>
      <trkpt lat="43.45702" lon="5.75808">
        <ele>429.45</ele>
        <time>2020-02-18T08:04:20Z</time>
      </trkpt>
      <trkpt lat="43.45709" lon="5.75816">
        <ele>430.23</ele>
        <time>2020-02-18T08:04:28Z</time>
      </trkpt>
      <trkpt lat="43.45733" lon="5.75834">
        <ele>431.91</ele>
        <time>2020-02-18T08:04:45Z</time>
      </trkpt>
      <trkpt lat="43.4575" lon="5.75852">
        <ele>432.15</ele>
        <time>2020-02-18T08:04:58Z</time>
      </trkpt>
      <trkpt lat="43.45752" lon="5.75859">
        <ele>432.44</ele>
        <time>2020-02-18T08:05:12Z</time>
      </trkpt>
      <trkpt lat="43.4574" lon="5.75864">
        <ele>432.45</ele>
        <time>2020-02-18T08:05:28Z</time>
      </trkpt>
      <trkpt lat="43.45733" lon="5.75866">
        <ele>433.42</ele>
        <time>2020-02-18T08:05:37Z</time>
      </trkpt>
      <trkpt lat="43.4572" lon="5.75875">
        <ele>435.05</ele>
        <time>2020-02-18T08:05:55Z</time>
      </trkpt>
      <trkpt lat="43.45705" lon="5.75881">
        <ele>437.83</ele>
        <time>2020-02-18T08:06:14Z</time>
      </trkpt>
      <trkpt lat="43.45686" lon="5.7589">
        <ele>440.89</ele>
        <time>2020-02-18T08:06:33Z</time>
      </trkpt>
      <trkpt lat="43.45676" lon="5.75891">
        <ele>441.73</ele>
        <time>2020-02-18T08:06:42Z</time>
      </trkpt>
      <trkpt lat="43.45653" lon="5.759">
        <ele>444.81</ele>
        <time>2020-02-18T08:07:00Z</time>
      </trkpt>
      <trkpt lat="43.45633" lon="5.759">
        <ele>447.75</ele>
        <time>2020-02-18T08:07:19Z</time>
      </trkpt>
      <trkpt lat="43.45617" lon="5.75903">
        <ele>450.17</ele>
        <time>2020-02-18T08:07:36Z</time>
      </trkpt>
      <trkpt lat="43.45603" lon="5.75906">
        <ele>452.52</ele>
        <time>2020-02-18T08:07:58Z</time>
      </trkpt>
      <trkpt lat="43.45601" lon="5.75904">
        <ele>452.56</ele>
        <time>2020-02-18T08:08:08Z</time>
      </trkpt>
      <trkpt lat="43.456" lon="5.75902">
        <ele>452.41</ele>
        <time>2020-02-18T08:08:10Z</time>
      </trkpt>
      <trkpt lat="43.456" lon="5.75889">
        <ele>451.62</ele>
        <time>2020-02-18T08:08:40Z</time>
      </trkpt>
      <trkpt lat="43.45599" lon="5.759">
        <ele>451.23</ele>
        <time>2020-02-18T08:09:09Z</time>
      </trkpt>
      <trkpt lat="43.45598" lon="5.75893">
        <ele>452.27</ele>
        <time>2020-02-18T08:09:38Z</time>
      </trkpt>
      <trkpt lat="43.45594" lon="5.75892">
        <ele>451.98</ele>
        <time>2020-02-18T08:10:07Z</time>
      </trkpt>
      <trkpt lat="43.45588" lon="5.75914">
        <ele>454.89</ele>
        <time>2020-02-18T08:10:27Z</time>
      </trkpt>
      <trkpt lat="43.4558" lon="5.75931">
        <ele>458.03</ele>
        <time>2020-02-18T08:10:43Z</time>
      </trkpt>
      <trkpt lat="43.45574" lon="5.75942">
        <ele>461.08</ele>
        <time>2020-02-18T08:10:57Z</time>
      </trkpt>
      <trkpt lat="43.45559" lon="5.75951">
        <ele>464.1</ele>
        <time>2020-02-18T08:11:12Z</time>
      </trkpt>
      <trkpt lat="43.45544" lon="5.75956">
        <ele>467.17</ele>
        <time>2020-02-18T08:11:31Z</time>
      </trkpt>
      <trkpt lat="43.45538" lon="5.75968">
        <ele>470.21</ele>
        <time>2020-02-18T08:11:48Z</time>
      </trkpt>
      <trkpt lat="43.4553" lon="5.75981">
        <ele>473.33</ele>
        <time>2020-02-18T08:12:07Z</time>
      </trkpt>
      <trkpt lat="43.45521" lon="5.75994">
        <ele>476.55</ele>
        <time>2020-02-18T08:12:24Z</time>
      </trkpt>
      <trkpt lat="43.45509" lon="5.76008">
        <ele>479.68</ele>
        <time>2020-02-18T08:12:39Z</time>
      </trkpt>
      <trkpt lat="43.45499" lon="5.76016">
        <ele>482.82</ele>
        <time>2020-02-18T08:12:53Z</time>
      </trkpt>
      <trkpt lat="43.45491" lon="5.76024">
        <ele>485.97</ele>
        <time>2020-02-18T08:13:06Z</time>
      </trkpt>
      <trkpt lat="43.45481" lon="5.76031">
        <ele>489.08</ele>
        <time>2020-02-18T08:13:19Z</time>
      </trkpt>
      <trkpt lat="43.45481" lon="5.76032">
        <ele>489.76</ele>
        <time>2020-02-18T08:13:22Z</time>
      </trkpt>
      <trkpt lat="43.45473" lon="5.76041">
        <ele>493.02</ele>
        <time>2020-02-18T08:13:38Z</time>
      </trkpt>
      <trkpt lat="43.45465" lon="5.76055">
        <ele>496.08</ele>
        <time>2020-02-18T08:13:55Z</time>
      </trkpt>
      <trkpt lat="43.4546" lon="5.7607">
        <ele>499.17</ele>
        <time>2020-02-18T08:14:12Z</time>
      </trkpt>
      <trkpt lat="43.45463" lon="5.76092">
        <ele>502.23</ele>
        <time>2020-02-18T08:14:29Z</time>
      </trkpt>
      <trkpt lat="43.45465" lon="5.76112">
        <ele>505.29</ele>
        <time>2020-02-18T08:14:48Z</time>
      </trkpt>
      <trkpt lat="43.45465" lon="5.76124">
        <ele>508.3</ele>
        <time>2020-02-18T08:15:02Z</time>
      </trkpt>
      <trkpt lat="43.45465" lon="5.76138">
        <ele>511.37</ele>
        <time>2020-02-18T08:15:17Z</time>
      </trkpt>
      <trkpt lat="43.45464" lon="5.76149">
        <ele>513.48</ele>
        <time>2020-02-18T08:15:26Z</time>
      </trkpt>
      <trkpt lat="43.45461" lon="5.76166">
        <ele>516.94</ele>
        <time>2020-02-18T08:15:43Z</time>
      </trkpt>
      <trkpt lat="43.45461" lon="5.76166">
        <ele>517.17</ele>
        <time>2020-02-18T08:15:44Z</time>
      </trkpt>
      <trkpt lat="43.45455" lon="5.7618">
        <ele>520.57</ele>
        <time>2020-02-18T08:16:01Z</time>
      </trkpt>
      <trkpt lat="43.4545" lon="5.76185">
        <ele>523.09</ele>
        <time>2020-02-18T08:16:13Z</time>
      </trkpt>
      <trkpt lat="43.45444" lon="5.76193">
        <ele>526.34</ele>
        <time>2020-02-18T08:16:29Z</time>
      </trkpt>
      <trkpt lat="43.45437" lon="5.76207">
        <ele>529.39</ele>
        <time>2020-02-18T08:16:45Z</time>
      </trkpt>
      <trkpt lat="43.45429" lon="5.76215">
        <ele>532.45</ele>
        <time>2020-02-18T08:16:58Z</time>
      </trkpt>
      <trkpt lat="43.45428" lon="5.76216">
        <ele>532.91</ele>
        <time>2020-02-18T08:17:00Z</time>
      </trkpt>
      <trkpt lat="43.45419" lon="5.76217">
        <ele>536.27</ele>
        <time>2020-02-18T08:17:17Z</time>
      </trkpt>
      <trkpt lat="43.45414" lon="5.7623">
        <ele>539.32</ele>
        <time>2020-02-18T08:17:34Z</time>
      </trkpt>
      <trkpt lat="43.45413" lon="5.7623">
        <ele>539.87</ele>
        <time>2020-02-18T08:17:37Z</time>
      </trkpt>
      <trkpt lat="43.4541" lon="5.76231">
        <ele>540.43</ele>
        <time>2020-02-18T08:17:40Z</time>
      </trkpt>
      <trkpt lat="43.454" lon="5.76239">
        <ele>543.7</ele>
        <time>2020-02-18T08:17:54Z</time>
      </trkpt>
      <trkpt lat="43.45396" lon="5.76244">
        <ele>546.92</ele>
        <time>2020-02-18T08:18:09Z</time>
      </trkpt>
      <trkpt lat="43.45395" lon="5.76244">
        <ele>547.93</ele>
        <time>2020-02-18T08:18:13Z</time>
      </trkpt>
      <trkpt lat="43.45391" lon="5.76262">
        <ele>551.2</ele>
        <time>2020-02-18T08:18:30Z</time>
      </trkpt>
      <trkpt lat="43.45391" lon="5.76265">
        <ele>551.86</ele>
        <time>2020-02-18T08:18:33Z</time>
      </trkpt>
      <trkpt lat="43.45394" lon="5.76269">
        <ele>555.26</ele>
        <time>2020-02-18T08:18:50Z</time>
      </trkpt>
      <trkpt lat="43.45383" lon="5.76284">
        <ele>558.33</ele>
        <time>2020-02-18T08:19:05Z</time>
      </trkpt>
      <trkpt lat="43.45379" lon="5.76285">
        <ele>559.32</ele>
        <time>2020-02-18T08:19:10Z</time>
      </trkpt>
      <trkpt lat="43.45372" lon="5.76284">
        <ele>562.38</ele>
        <time>2020-02-18T08:19:24Z</time>
      </trkpt>
      <trkpt lat="43.45367" lon="5.76282">
        <ele>563.52</ele>
        <time>2020-02-18T08:19:31Z</time>
      </trkpt>
      <trkpt lat="43.45365" lon="5.76281">
        <ele>563.92</ele>
        <time>2020-02-18T08:19:33Z</time>
      </trkpt>
      <trkpt lat="43.45362" lon="5.76287">
        <ele>567.21</ele>
        <time>2020-02-18T08:19:49Z</time>
      </trkpt>
      <trkpt lat="43.45363" lon="5.76296">
        <ele>570.26</ele>
        <time>2020-02-18T08:20:08Z</time>
      </trkpt>
      <trkpt lat="43.45364" lon="5.76308">
        <ele>573.38</ele>
        <time>2020-02-18T08:20:23Z</time>
      </trkpt>
      <trkpt lat="43.45364" lon="5.76311">
        <ele>574.08</ele>
        <time>2020-02-18T08:20:27Z</time>
      </trkpt>
      <trkpt lat="43.45364" lon="5.76316">
        <ele>574.55</ele>
        <time>2020-02-18T08:20:30Z</time>
      </trkpt>
      <trkpt lat="43.45365" lon="5.76322">
        <ele>577.15</ele>
        <time>2020-02-18T08:20:46Z</time>
      </trkpt>
      <trkpt lat="43.45368" lon="5.76333">
        <ele>580.59</ele>
        <time>2020-02-18T08:21:03Z</time>
      </trkpt>
      <trkpt lat="43.45368" lon="5.76348">
        <ele>583.64</ele>
        <time>2020-02-18T08:21:18Z</time>
      </trkpt>
      <trkpt lat="43.45371" lon="5.76357">
        <ele>586.66</ele>
        <time>2020-02-18T08:21:39Z</time>
      </trkpt>
      <trkpt lat="43.45371" lon="5.76367">
        <ele>589.75</ele>
        <time>2020-02-18T08:21:53Z</time>
      </trkpt>
      <trkpt lat="43.4537" lon="5.76384">
        <ele>592.94</ele>
        <time>2020-02-18T08:22:14Z</time>
      </trkpt>
      <trkpt lat="43.45375" lon="5.76394">
        <ele>596.15</ele>
        <time>2020-02-18T08:22:31Z</time>
      </trkpt>
      <trkpt lat="43.45385" lon="5.76399">
        <ele>599.27</ele>
        <time>2020-02-18T08:22:47Z</time>
      </trkpt>
      <trkpt lat="43.45387" lon="5.76408">
        <ele>600.48</ele>
        <time>2020-02-18T08:22:57Z</time>
      </trkpt>
      <trkpt lat="43.45386" lon="5.76424">
        <ele>601.23</ele>
        <time>2020-02-18T08:23:25Z</time>
      </trkpt>
      <trkpt lat="43.45389" lon="5.76446">
        <ele>598.4</ele>
        <time>2020-02-18T08:23:46Z</time>
      </trkpt>
      <trkpt lat="43.45384" lon="5.76482">
        <ele>596.54</ele>
        <time>2020-02-18T08:24:08Z</time>
      </trkpt>
      <trkpt lat="43.45383" lon="5.76503">
        <ele>594.82</ele>
        <time>2020-02-18T08:24:22Z</time>
      </trkpt>
      <trkpt lat="43.45394" lon="5.7654">
        <ele>592.97</ele>
        <time>2020-02-18T08:24:42Z</time>
      </trkpt>
      <trkpt lat="43.45398" lon="5.76548">
        <ele>592.99</ele>
        <time>2020-02-18T08:24:47Z</time>
      </trkpt>
      <trkpt lat="43.45402" lon="5.76571">
        <ele>593.19</ele>
        <time>2020-02-18T08:24:58Z</time>
      </trkpt>
      <trkpt lat="43.45403" lon="5.76599">
        <ele>592.81</ele>
        <time>2020-02-18T08:25:13Z</time>
      </trkpt>
      <trkpt lat="43.45403" lon="5.76601">
        <ele>592.74</ele>
        <time>2020-02-18T08:25:14Z</time>
      </trkpt>
      <trkpt lat="43.45402" lon="5.76608">
        <ele>592.58</ele>
        <time>2020-02-18T08:25:17Z</time>
      </trkpt>
      <trkpt lat="43.45402" lon="5.76613">
        <ele>592.48</ele>
        <time>2020-02-18T08:25:19Z</time>
      </trkpt>
      <trkpt lat="43.45395" lon="5.76644">
        <ele>592.2</ele>
        <time>2020-02-18T08:25:34Z</time>
      </trkpt>
      <trkpt lat="43.45385" lon="5.76677">
        <ele>590.82</ele>
        <time>2020-02-18T08:25:50Z</time>
      </trkpt>
      <trkpt lat="43.45385" lon="5.7669">
        <ele>590.28</ele>
        <time>2020-02-18T08:25:55Z</time>
      </trkpt>
      <trkpt lat="43.45386" lon="5.76692">
        <ele>590.18</ele>
        <time>2020-02-18T08:25:56Z</time>
      </trkpt>
      <trkpt lat="43.45385" lon="5.76694">
        <ele>590.06</ele>
        <time>2020-02-18T08:25:57Z</time>
      </trkpt>
      <trkpt lat="43.45386" lon="5.76696">
        <ele>589.93</ele>
        <time>2020-02-18T08:25:58Z</time>
      </trkpt>
      <trkpt lat="43.45386" lon="5.76698">
        <ele>589.82</ele>
        <time>2020-02-18T08:25:59Z</time>
      </trkpt>
      <trkpt lat="43.45387" lon="5.76701">
        <ele>589.7</ele>
        <time>2020-02-18T08:26:00Z</time>
      </trkpt>
      <trkpt lat="43.45387" lon="5.76703">
        <ele>589.57</ele>
        <time>2020-02-18T08:26:01Z</time>
      </trkpt>
      <trkpt lat="43.45388" lon="5.76705">
        <ele>589.44</ele>
        <time>2020-02-18T08:26:02Z</time>
      </trkpt>
      <trkpt lat="43.45389" lon="5.76706">
        <ele>589.34</ele>
        <time>2020-02-18T08:26:03Z</time>
      </trkpt>
      <trkpt lat="43.4539" lon="5.76709">
        <ele>589.24</ele>
        <time>2020-02-18T08:26:04Z</time>
      </trkpt>
      <trkpt lat="43.45391" lon="5.76711">
        <ele>589.13</ele>
        <time>2020-02-18T08:26:05Z</time>
      </trkpt>
      <trkpt lat="43.45392" lon="5.76712">
        <ele>589.06</ele>
        <time>2020-02-18T08:26:06Z</time>
      </trkpt>
      <trkpt lat="43.45394" lon="5.76716">
        <ele>588.82</ele>
        <time>2020-02-18T08:26:09Z</time>
      </trkpt>
      <trkpt lat="43.45395" lon="5.76718">
        <ele>588.77</ele>
        <time>2020-02-18T08:26:10Z</time>
      </trkpt>
      <trkpt lat="43.45396" lon="5.76719">
        <ele>588.73</ele>
        <time>2020-02-18T08:26:11Z</time>
      </trkpt>
      <trkpt lat="43.45403" lon="5.76731">
        <ele>588.82</ele>
        <time>2020-02-18T08:26:19Z</time>
      </trkpt>
      <trkpt lat="43.45408" lon="5.76736">
        <ele>589.1</ele>
        <time>2020-02-18T08:26:24Z</time>
      </trkpt>
      <trkpt lat="43.45409" lon="5.76736">
        <ele>589.18</ele>
        <time>2020-02-18T08:26:25Z</time>
      </trkpt>
      <trkpt lat="43.45412" lon="5.76741">
        <ele>589.53</ele>
        <time>2020-02-18T08:26:29Z</time>
      </trkpt>
      <trkpt lat="43.45423" lon="5.76754">
        <ele>591.5</ele>
        <time>2020-02-18T08:26:42Z</time>
      </trkpt>
      <trkpt lat="43.45418" lon="5.76773">
        <ele>594.62</ele>
        <time>2020-02-18T08:26:59Z</time>
      </trkpt>
      <trkpt lat="43.45416" lon="5.76787">
        <ele>597.77</ele>
        <time>2020-02-18T08:27:13Z</time>
      </trkpt>
      <trkpt lat="43.45413" lon="5.76808">
        <ele>600.81</ele>
        <time>2020-02-18T08:27:29Z</time>
      </trkpt>
      <trkpt lat="43.45418" lon="5.76826">
        <ele>603.48</ele>
        <time>2020-02-18T08:27:42Z</time>
      </trkpt>
      <trkpt lat="43.45418" lon="5.76827">
        <ele>603.65</ele>
        <time>2020-02-18T08:27:43Z</time>
      </trkpt>
      <trkpt lat="43.45429" lon="5.76839">
        <ele>606.76</ele>
        <time>2020-02-18T08:27:57Z</time>
      </trkpt>
      <trkpt lat="43.45431" lon="5.76839">
        <ele>607.11</ele>
        <time>2020-02-18T08:27:59Z</time>
      </trkpt>
      <trkpt lat="43.45445" lon="5.76857">
        <ele>610.25</ele>
        <time>2020-02-18T08:28:17Z</time>
      </trkpt>
      <trkpt lat="43.45449" lon="5.76873">
        <ele>613.27</ele>
        <time>2020-02-18T08:28:34Z</time>
      </trkpt>
      <trkpt lat="43.45452" lon="5.76886">
        <ele>613.69</ele>
        <time>2020-02-18T08:28:46Z</time>
      </trkpt>
      <trkpt lat="43.45454" lon="5.76899">
        <ele>612.23</ele>
        <time>2020-02-18T08:28:54Z</time>
      </trkpt>
      <trkpt lat="43.45452" lon="5.76904">
        <ele>611.3</ele>
        <time>2020-02-18T08:28:58Z</time>
      </trkpt>
      <trkpt lat="43.45447" lon="5.76915">
        <ele>607.76</ele>
        <time>2020-02-18T08:29:09Z</time>
      </trkpt>
      <trkpt lat="43.45439" lon="5.76928">
        <ele>604.67</ele>
        <time>2020-02-18T08:29:21Z</time>
      </trkpt>
      <trkpt lat="43.45438" lon="5.76929">
        <ele>604.49</ele>
        <time>2020-02-18T08:29:22Z</time>
      </trkpt>
      <trkpt lat="43.45427" lon="5.76943">
        <ele>601.91</ele>
        <time>2020-02-18T08:29:36Z</time>
      </trkpt>
      <trkpt lat="43.45422" lon="5.76959">
        <ele>600.31</ele>
        <time>2020-02-18T08:29:44Z</time>
      </trkpt>
      <trkpt lat="43.4542" lon="5.7697">
        <ele>599.69</ele>
        <time>2020-02-18T08:29:49Z</time>
      </trkpt>
      <trkpt lat="43.45421" lon="5.76973">
        <ele>599.48</ele>
        <time>2020-02-18T08:29:51Z</time>
      </trkpt>
      <trkpt lat="43.45422" lon="5.76977">
        <ele>599.21</ele>
        <time>2020-02-18T08:29:54Z</time>
      </trkpt>
      <trkpt lat="43.45435" lon="5.76997">
        <ele>599.15</ele>
        <time>2020-02-18T08:30:07Z</time>
      </trkpt>
      <trkpt lat="43.45439" lon="5.77004">
        <ele>599.3</ele>
        <time>2020-02-18T08:30:12Z</time>
      </trkpt>
      <trkpt lat="43.45442" lon="5.77015">
        <ele>600.18</ele>
        <time>2020-02-18T08:30:19Z</time>
      </trkpt>
      <trkpt lat="43.45445" lon="5.77026">
        <ele>600.95</ele>
        <time>2020-02-18T08:30:26Z</time>
      </trkpt>
      <trkpt lat="43.45444" lon="5.7703">
        <ele>601.12</ele>
        <time>2020-02-18T08:30:28Z</time>
      </trkpt>
      <trkpt lat="43.45443" lon="5.77039">
        <ele>601.37</ele>
        <time>2020-02-18T08:30:33Z</time>
      </trkpt>
      <trkpt lat="43.45441" lon="5.77045">
        <ele>601.43</ele>
        <time>2020-02-18T08:30:36Z</time>
      </trkpt>
      <trkpt lat="43.45438" lon="5.7706">
        <ele>601.28</ele>
        <time>2020-02-18T08:30:46Z</time>
      </trkpt>
      <trkpt lat="43.4544" lon="5.7707">
        <ele>601.3</ele>
        <time>2020-02-18T08:30:52Z</time>
      </trkpt>
      <trkpt lat="43.45446" lon="5.77078">
        <ele>601.56</ele>
        <time>2020-02-18T08:30:58Z</time>
      </trkpt>
      <trkpt lat="43.45454" lon="5.77088">
        <ele>602.14</ele>
        <time>2020-02-18T08:31:06Z</time>
      </trkpt>
      <trkpt lat="43.45459" lon="5.77098">
        <ele>603.57</ele>
        <time>2020-02-18T08:31:13Z</time>
      </trkpt>
      <trkpt lat="43.45468" lon="5.77114">
        <ele>606.07</ele>
        <time>2020-02-18T08:31:28Z</time>
      </trkpt>
      <trkpt lat="43.45469" lon="5.77125">
        <ele>609.19</ele>
        <time>2020-02-18T08:31:41Z</time>
      </trkpt>
      <trkpt lat="43.45465" lon="5.77138">
        <ele>612.35</ele>
        <time>2020-02-18T08:31:57Z</time>
      </trkpt>
      <trkpt lat="43.45468" lon="5.77154">
        <ele>615.48</ele>
        <time>2020-02-18T08:32:12Z</time>
      </trkpt>
      <trkpt lat="43.45479" lon="5.77167">
        <ele>618.63</ele>
        <time>2020-02-18T08:32:27Z</time>
      </trkpt>
      <trkpt lat="43.45491" lon="5.77181">
        <ele>621.68</ele>
        <time>2020-02-18T08:32:43Z</time>
      </trkpt>
      <trkpt lat="43.45504" lon="5.77187">
        <ele>624.93</ele>
        <time>2020-02-18T08:32:58Z</time>
      </trkpt>
      <trkpt lat="43.45508" lon="5.77206">
        <ele>626.94</ele>
        <time>2020-02-18T08:33:15Z</time>
      </trkpt>
      <trkpt lat="43.455" lon="5.77236">
        <ele>629.17</ele>
        <time>2020-02-18T08:33:33Z</time>
      </trkpt>
      <trkpt lat="43.45504" lon="5.77262">
        <ele>632.18</ele>
        <time>2020-02-18T08:33:50Z</time>
      </trkpt>
      <trkpt lat="43.45505" lon="5.77263">
        <ele>632.33</ele>
        <time>2020-02-18T08:33:51Z</time>
      </trkpt>
      <trkpt lat="43.45512" lon="5.77284">
        <ele>635.52</ele>
        <time>2020-02-18T08:34:09Z</time>
      </trkpt>
      <trkpt lat="43.45515" lon="5.7731">
        <ele>638.69</ele>
        <time>2020-02-18T08:34:25Z</time>
      </trkpt>
      <trkpt lat="43.45518" lon="5.77329">
        <ele>641.83</ele>
        <time>2020-02-18T08:34:41Z</time>
      </trkpt>
      <trkpt lat="43.45521" lon="5.77339">
        <ele>644.87</ele>
        <time>2020-02-18T08:34:53Z</time>
      </trkpt>
      <trkpt lat="43.45527" lon="5.77354">
        <ele>646.86</ele>
        <time>2020-02-18T08:35:05Z</time>
      </trkpt>
      <trkpt lat="43.45527" lon="5.77383">
        <ele>646.68</ele>
        <time>2020-02-18T08:35:21Z</time>
      </trkpt>
      <trkpt lat="43.45522" lon="5.774">
        <ele>644.07</ele>
        <time>2020-02-18T08:35:33Z</time>
      </trkpt>
      <trkpt lat="43.45519" lon="5.77419">
        <ele>642.81</ele>
        <time>2020-02-18T08:35:41Z</time>
      </trkpt>
      <trkpt lat="43.45511" lon="5.77444">
        <ele>640.32</ele>
        <time>2020-02-18T08:35:57Z</time>
      </trkpt>
      <trkpt lat="43.45512" lon="5.77468">
        <ele>639.63</ele>
        <time>2020-02-18T08:36:14Z</time>
      </trkpt>
      <trkpt lat="43.45514" lon="5.77477">
        <ele>639.46</ele>
        <time>2020-02-18T08:36:18Z</time>
      </trkpt>
      <trkpt lat="43.45516" lon="5.77503">
        <ele>639.49</ele>
        <time>2020-02-18T08:36:33Z</time>
      </trkpt>
      <trkpt lat="43.45509" lon="5.77528">
        <ele>636.93</ele>
        <time>2020-02-18T08:36:48Z</time>
      </trkpt>
      <trkpt lat="43.45506" lon="5.77549">
        <ele>636.28</ele>
        <time>2020-02-18T08:36:59Z</time>
      </trkpt>
      <trkpt lat="43.4551" lon="5.77577">
        <ele>637.98</ele>
        <time>2020-02-18T08:37:19Z</time>
      </trkpt>
      <trkpt lat="43.45505" lon="5.77611">
        <ele>641.1</ele>
        <time>2020-02-18T08:37:38Z</time>
      </trkpt>
      <trkpt lat="43.45499" lon="5.77629">
        <ele>644.26</ele>
        <time>2020-02-18T08:37:57Z</time>
      </trkpt>
      <trkpt lat="43.45499" lon="5.77641">
        <ele>645.79</ele>
        <time>2020-02-18T08:38:06Z</time>
      </trkpt>
      <trkpt lat="43.45496" lon="5.77676">
        <ele>648.96</ele>
        <time>2020-02-18T08:38:26Z</time>
      </trkpt>
      <trkpt lat="43.45492" lon="5.77698">
        <ele>651.59</ele>
        <time>2020-02-18T08:38:46Z</time>
      </trkpt>
      <trkpt lat="43.4549" lon="5.77717">
        <ele>654.07</ele>
        <time>2020-02-18T08:39:04Z</time>
      </trkpt>
      <trkpt lat="43.45485" lon="5.77745">
        <ele>656.48</ele>
        <time>2020-02-18T08:39:19Z</time>
      </trkpt>
      <trkpt lat="43.45481" lon="5.77774">
        <ele>659.12</ele>
        <time>2020-02-18T08:39:34Z</time>
      </trkpt>
      <trkpt lat="43.4548" lon="5.77787">
        <ele>660.09</ele>
        <time>2020-02-18T08:39:39Z</time>
      </trkpt>
      <trkpt lat="43.45476" lon="5.77803">
        <ele>660.58</ele>
        <time>2020-02-18T08:39:46Z</time>
      </trkpt>
      <trkpt lat="43.45467" lon="5.77826">
        <ele>659.93</ele>
        <time>2020-02-18T08:40:01Z</time>
      </trkpt>
      <trkpt lat="43.45465" lon="5.77832">
        <ele>659.47</ele>
        <time>2020-02-18T08:40:05Z</time>
      </trkpt>
      <trkpt lat="43.4546" lon="5.77845">
        <ele>658.56</ele>
        <time>2020-02-18T08:40:13Z</time>
      </trkpt>
      <trkpt lat="43.4546" lon="5.77847">
        <ele>658.31</ele>
        <time>2020-02-18T08:40:15Z</time>
      </trkpt>
      <trkpt lat="43.45453" lon="5.77865">
        <ele>656.84</ele>
        <time>2020-02-18T08:40:26Z</time>
      </trkpt>
      <trkpt lat="43.45446" lon="5.77894">
        <ele>654.5</ele>
        <time>2020-02-18T08:40:39Z</time>
      </trkpt>
      <trkpt lat="43.45437" lon="5.77913">
        <ele>652.83</ele>
        <time>2020-02-18T08:40:51Z</time>
      </trkpt>
      <trkpt lat="43.45421" lon="5.77918">
        <ele>651.11</ele>
        <time>2020-02-18T08:41:02Z</time>
      </trkpt>
      <trkpt lat="43.45406" lon="5.77913">
        <ele>650.1</ele>
        <time>2020-02-18T08:41:14Z</time>
      </trkpt>
      <trkpt lat="43.45392" lon="5.77921">
        <ele>648.27</ele>
        <time>2020-02-18T08:41:26Z</time>
      </trkpt>
      <trkpt lat="43.45391" lon="5.77921">
        <ele>648.19</ele>
        <time>2020-02-18T08:41:27Z</time>
      </trkpt>
      <trkpt lat="43.45388" lon="5.77927">
        <ele>647.51</ele>
        <time>2020-02-18T08:41:31Z</time>
      </trkpt>
      <trkpt lat="43.4538" lon="5.7794">
        <ele>646.29</ele>
        <time>2020-02-18T08:41:39Z</time>
      </trkpt>
      <trkpt lat="43.45361" lon="5.7795">
        <ele>644.52</ele>
        <time>2020-02-18T08:41:53Z</time>
      </trkpt>
      <trkpt lat="43.45357" lon="5.77955">
        <ele>644.08</ele>
        <time>2020-02-18T08:41:56Z</time>
      </trkpt>
      <trkpt lat="43.45352" lon="5.77963">
        <ele>643.31</ele>
        <time>2020-02-18T08:42:01Z</time>
      </trkpt>
      <trkpt lat="43.45347" lon="5.77981">
        <ele>642.98</ele>
        <time>2020-02-18T08:42:08Z</time>
      </trkpt>
      <trkpt lat="43.4535" lon="5.77988">
        <ele>642.79</ele>
        <time>2020-02-18T08:42:12Z</time>
      </trkpt>
      <trkpt lat="43.45355" lon="5.78009">
        <ele>642.81</ele>
        <time>2020-02-18T08:42:24Z</time>
      </trkpt>
      <trkpt lat="43.45354" lon="5.78016">
        <ele>643.08</ele>
        <time>2020-02-18T08:42:30Z</time>
      </trkpt>
      <trkpt lat="43.45359" lon="5.78035">
        <ele>643.45</ele>
        <time>2020-02-18T08:42:48Z</time>
      </trkpt>
      <trkpt lat="43.45362" lon="5.78044">
        <ele>644.24</ele>
        <time>2020-02-18T08:42:54Z</time>
      </trkpt>
      <trkpt lat="43.45369" lon="5.78079">
        <ele>646</ele>
        <time>2020-02-18T08:43:10Z</time>
      </trkpt>
      <trkpt lat="43.45369" lon="5.78101">
        <ele>646.59</ele>
        <time>2020-02-18T08:43:24Z</time>
      </trkpt>
      <trkpt lat="43.45364" lon="5.78117">
        <ele>646.89</ele>
        <time>2020-02-18T08:43:31Z</time>
      </trkpt>
      <trkpt lat="43.45351" lon="5.78135">
        <ele>645.63</ele>
        <time>2020-02-18T08:43:43Z</time>
      </trkpt>
      <trkpt lat="43.4535" lon="5.78135">
        <ele>645.28</ele>
        <time>2020-02-18T08:43:44Z</time>
      </trkpt>
      <trkpt lat="43.45335" lon="5.78145">
        <ele>642.59</ele>
        <time>2020-02-18T08:43:58Z</time>
      </trkpt>
      <trkpt lat="43.45316" lon="5.78154">
        <ele>639.63</ele>
        <time>2020-02-18T08:44:12Z</time>
      </trkpt>
      <trkpt lat="43.45304" lon="5.78151">
        <ele>638.65</ele>
        <time>2020-02-18T08:44:21Z</time>
      </trkpt>
      <trkpt lat="43.45302" lon="5.7815">
        <ele>638.48</ele>
        <time>2020-02-18T08:44:23Z</time>
      </trkpt>
      <trkpt lat="43.45296" lon="5.78149">
        <ele>638.2</ele>
        <time>2020-02-18T08:44:27Z</time>
      </trkpt>
      <trkpt lat="43.45278" lon="5.78149">
        <ele>636.87</ele>
        <time>2020-02-18T08:44:39Z</time>
      </trkpt>
      <trkpt lat="43.4526" lon="5.78156">
        <ele>636.19</ele>
        <time>2020-02-18T08:44:52Z</time>
      </trkpt>
      <trkpt lat="43.45254" lon="5.78157">
        <ele>636.1</ele>
        <time>2020-02-18T08:44:56Z</time>
      </trkpt>
      <trkpt lat="43.45242" lon="5.78182">
        <ele>635.67</ele>
        <time>2020-02-18T08:45:10Z</time>
      </trkpt>
      <trkpt lat="43.45243" lon="5.78185">
        <ele>635.65</ele>
        <time>2020-02-18T08:45:12Z</time>
      </trkpt>
      <trkpt lat="43.45249" lon="5.78224">
        <ele>636.02</ele>
        <time>2020-02-18T08:45:32Z</time>
      </trkpt>
      <trkpt lat="43.45249" lon="5.78226">
        <ele>636.06</ele>
        <time>2020-02-18T08:45:33Z</time>
      </trkpt>
      <trkpt lat="43.45252" lon="5.78237">
        <ele>636.33</ele>
        <time>2020-02-18T08:45:37Z</time>
      </trkpt>
      <trkpt lat="43.45254" lon="5.78262">
        <ele>637.67</ele>
        <time>2020-02-18T08:45:51Z</time>
      </trkpt>
      <trkpt lat="43.45256" lon="5.78299">
        <ele>640.13</ele>
        <time>2020-02-18T08:46:12Z</time>
      </trkpt>
      <trkpt lat="43.4526" lon="5.78322">
        <ele>643.25</ele>
        <time>2020-02-18T08:46:32Z</time>
      </trkpt>
      <trkpt lat="43.4525" lon="5.78351">
        <ele>645.61</ele>
        <time>2020-02-18T08:46:49Z</time>
      </trkpt>
      <trkpt lat="43.45237" lon="5.78355">
        <ele>642.96</ele>
        <time>2020-02-18T08:47:08Z</time>
      </trkpt>
      <trkpt lat="43.4521" lon="5.78341">
        <ele>639.97</ele>
        <time>2020-02-18T08:47:29Z</time>
      </trkpt>
      <trkpt lat="43.45196" lon="5.78342">
        <ele>638.98</ele>
        <time>2020-02-18T08:47:38Z</time>
      </trkpt>
      <trkpt lat="43.45191" lon="5.78343">
        <ele>638.31</ele>
        <time>2020-02-18T08:47:41Z</time>
      </trkpt>
      <trkpt lat="43.45182" lon="5.78379">
        <ele>635.54</ele>
        <time>2020-02-18T08:47:55Z</time>
      </trkpt>
      <trkpt lat="43.45184" lon="5.78386">
        <ele>635.14</ele>
        <time>2020-02-18T08:48:00Z</time>
      </trkpt>
      <trkpt lat="43.4518" lon="5.78402">
        <ele>634.15</ele>
        <time>2020-02-18T08:48:07Z</time>
      </trkpt>
      <trkpt lat="43.45165" lon="5.78413">
        <ele>632.21</ele>
        <time>2020-02-18T08:48:17Z</time>
      </trkpt>
      <trkpt lat="43.4516" lon="5.78427">
        <ele>631.51</ele>
        <time>2020-02-18T08:48:26Z</time>
      </trkpt>
      <trkpt lat="43.45165" lon="5.78452">
        <ele>630.74</ele>
        <time>2020-02-18T08:48:39Z</time>
      </trkpt>
      <trkpt lat="43.45162" lon="5.78461">
        <ele>630.54</ele>
        <time>2020-02-18T08:48:43Z</time>
      </trkpt>
      <trkpt lat="43.45159" lon="5.78483">
        <ele>630.8</ele>
        <time>2020-02-18T08:48:55Z</time>
      </trkpt>
      <trkpt lat="43.4516" lon="5.78487">
        <ele>630.97</ele>
        <time>2020-02-18T08:48:58Z</time>
      </trkpt>
      <trkpt lat="43.45166" lon="5.7851">
        <ele>632.21</ele>
        <time>2020-02-18T08:49:12Z</time>
      </trkpt>
      <trkpt lat="43.45167" lon="5.78531">
        <ele>632.43</ele>
        <time>2020-02-18T08:49:22Z</time>
      </trkpt>
      <trkpt lat="43.45164" lon="5.78544">
        <ele>633.04</ele>
        <time>2020-02-18T08:49:28Z</time>
      </trkpt>
      <trkpt lat="43.45163" lon="5.78552">
        <ele>633.37</ele>
        <time>2020-02-18T08:49:32Z</time>
      </trkpt>
      <trkpt lat="43.45161" lon="5.78559">
        <ele>634.65</ele>
        <time>2020-02-18T08:49:38Z</time>
      </trkpt>
      <trkpt lat="43.45157" lon="5.78572">
        <ele>634.9</ele>
        <time>2020-02-18T08:49:43Z</time>
      </trkpt>
      <trkpt lat="43.45155" lon="5.78599">
        <ele>636.19</ele>
        <time>2020-02-18T08:49:57Z</time>
      </trkpt>
      <trkpt lat="43.45154" lon="5.78608">
        <ele>637.16</ele>
        <time>2020-02-18T08:50:03Z</time>
      </trkpt>
      <trkpt lat="43.45151" lon="5.78619">
        <ele>637.56</ele>
        <time>2020-02-18T08:50:08Z</time>
      </trkpt>
      <trkpt lat="43.45145" lon="5.78647">
        <ele>637.74</ele>
        <time>2020-02-18T08:50:23Z</time>
      </trkpt>
      <trkpt lat="43.45146" lon="5.78667">
        <ele>638.27</ele>
        <time>2020-02-18T08:50:31Z</time>
      </trkpt>
      <trkpt lat="43.45149" lon="5.78691">
        <ele>639.41</ele>
        <time>2020-02-18T08:50:45Z</time>
      </trkpt>
      <trkpt lat="43.45147" lon="5.78713">
        <ele>641.53</ele>
        <time>2020-02-18T08:51:00Z</time>
      </trkpt>
      <trkpt lat="43.4514" lon="5.78745">
        <ele>640.56</ele>
        <time>2020-02-18T08:51:18Z</time>
      </trkpt>
      <trkpt lat="43.45127" lon="5.78759">
        <ele>637.63</ele>
        <time>2020-02-18T08:51:31Z</time>
      </trkpt>
      <trkpt lat="43.45116" lon="5.78777">
        <ele>636.12</ele>
        <time>2020-02-18T08:51:43Z</time>
      </trkpt>
      <trkpt lat="43.45114" lon="5.78779">
        <ele>635.78</ele>
        <time>2020-02-18T08:51:45Z</time>
      </trkpt>
      <trkpt lat="43.45106" lon="5.78794">
        <ele>634.61</ele>
        <time>2020-02-18T08:51:53Z</time>
      </trkpt>
      <trkpt lat="43.451" lon="5.78805">
        <ele>634.16</ele>
        <time>2020-02-18T08:51:58Z</time>
      </trkpt>
      <trkpt lat="43.45096" lon="5.7881">
        <ele>633.9</ele>
        <time>2020-02-18T08:52:01Z</time>
      </trkpt>
      <trkpt lat="43.45092" lon="5.78821">
        <ele>633.05</ele>
        <time>2020-02-18T08:52:07Z</time>
      </trkpt>
      <trkpt lat="43.45089" lon="5.78824">
        <ele>631.91</ele>
        <time>2020-02-18T08:52:12Z</time>
      </trkpt>
      <trkpt lat="43.45075" lon="5.78839">
        <ele>629.76</ele>
        <time>2020-02-18T08:52:26Z</time>
      </trkpt>
      <trkpt lat="43.45063" lon="5.78856">
        <ele>628.36</ele>
        <time>2020-02-18T08:52:35Z</time>
      </trkpt>
      <trkpt lat="43.45058" lon="5.78858">
        <ele>627.95</ele>
        <time>2020-02-18T08:52:39Z</time>
      </trkpt>
      <trkpt lat="43.45056" lon="5.78859">
        <ele>627.84</ele>
        <time>2020-02-18T08:52:41Z</time>
      </trkpt>
      <trkpt lat="43.4505" lon="5.78862">
        <ele>627.45</ele>
        <time>2020-02-18T08:52:46Z</time>
      </trkpt>
      <trkpt lat="43.45048" lon="5.78863">
        <ele>627.28</ele>
        <time>2020-02-18T08:52:48Z</time>
      </trkpt>
      <trkpt lat="43.4504" lon="5.78875">
        <ele>626.55</ele>
        <time>2020-02-18T08:52:55Z</time>
      </trkpt>
      <trkpt lat="43.45037" lon="5.78883">
        <ele>626.39</ele>
        <time>2020-02-18T08:52:58Z</time>
      </trkpt>
      <trkpt lat="43.45029" lon="5.78919">
        <ele>624.27</ele>
        <time>2020-02-18T08:53:16Z</time>
      </trkpt>
      <trkpt lat="43.45022" lon="5.78933">
        <ele>623.01</ele>
        <time>2020-02-18T08:53:26Z</time>
      </trkpt>
      <trkpt lat="43.45016" lon="5.78943">
        <ele>622.6</ele>
        <time>2020-02-18T08:53:31Z</time>
      </trkpt>
      <trkpt lat="43.44999" lon="5.78947">
        <ele>621.78</ele>
        <time>2020-02-18T08:53:47Z</time>
      </trkpt>
      <trkpt lat="43.44991" lon="5.78943">
        <ele>621.26</ele>
        <time>2020-02-18T08:53:53Z</time>
      </trkpt>
      <trkpt lat="43.44977" lon="5.78953">
        <ele>620.3</ele>
        <time>2020-02-18T08:54:03Z</time>
      </trkpt>
      <trkpt lat="43.4497" lon="5.78971">
        <ele>619.25</ele>
        <time>2020-02-18T08:54:12Z</time>
      </trkpt>
      <trkpt lat="43.44967" lon="5.79002">
        <ele>618.42</ele>
        <time>2020-02-18T08:54:25Z</time>
      </trkpt>
      <trkpt lat="43.44967" lon="5.79027">
        <ele>617.31</ele>
        <time>2020-02-18T08:54:38Z</time>
      </trkpt>
      <trkpt lat="43.4497" lon="5.79044">
        <ele>616.45</ele>
        <time>2020-02-18T08:54:51Z</time>
      </trkpt>
      <trkpt lat="43.44966" lon="5.79052">
        <ele>616.02</ele>
        <time>2020-02-18T08:54:57Z</time>
      </trkpt>
      <trkpt lat="43.44944" lon="5.79045">
        <ele>614.79</ele>
        <time>2020-02-18T08:55:16Z</time>
      </trkpt>
      <trkpt lat="43.44935" lon="5.79058">
        <ele>613.43</ele>
        <time>2020-02-18T08:55:26Z</time>
      </trkpt>
      <trkpt lat="43.44938" lon="5.79086">
        <ele>612.22</ele>
        <time>2020-02-18T08:55:41Z</time>
      </trkpt>
      <trkpt lat="43.44935" lon="5.79105">
        <ele>611.08</ele>
        <time>2020-02-18T08:55:52Z</time>
      </trkpt>
      <trkpt lat="43.44928" lon="5.79115">
        <ele>610.45</ele>
        <time>2020-02-18T08:55:58Z</time>
      </trkpt>
      <trkpt lat="43.44918" lon="5.79121">
        <ele>609.65</ele>
        <time>2020-02-18T08:56:05Z</time>
      </trkpt>
      <trkpt lat="43.4491" lon="5.7915">
        <ele>608.36</ele>
        <time>2020-02-18T08:56:18Z</time>
      </trkpt>
      <trkpt lat="43.44911" lon="5.79154">
        <ele>608.26</ele>
        <time>2020-02-18T08:56:20Z</time>
      </trkpt>
      <trkpt lat="43.449" lon="5.79173">
        <ele>606.91</ele>
        <time>2020-02-18T08:56:36Z</time>
      </trkpt>
      <trkpt lat="43.44891" lon="5.79167">
        <ele>606.33</ele>
        <time>2020-02-18T08:56:44Z</time>
      </trkpt>
      <trkpt lat="43.44887" lon="5.79165">
        <ele>606.15</ele>
        <time>2020-02-18T08:56:47Z</time>
      </trkpt>
      <trkpt lat="43.44871" lon="5.79167">
        <ele>605.55</ele>
        <time>2020-02-18T08:56:54Z</time>
      </trkpt>
      <trkpt lat="43.44867" lon="5.79182">
        <ele>604.62</ele>
        <time>2020-02-18T08:57:02Z</time>
      </trkpt>
      <trkpt lat="43.44875" lon="5.79215">
        <ele>603.1</ele>
        <time>2020-02-18T08:57:19Z</time>
      </trkpt>
      <trkpt lat="43.44876" lon="5.79242">
        <ele>602.29</ele>
        <time>2020-02-18T08:57:32Z</time>
      </trkpt>
      <trkpt lat="43.44878" lon="5.79254">
        <ele>601.54</ele>
        <time>2020-02-18T08:57:40Z</time>
      </trkpt>
      <trkpt lat="43.44883" lon="5.79273">
        <ele>599.9</ele>
        <time>2020-02-18T08:57:51Z</time>
      </trkpt>
      <trkpt lat="43.44884" lon="5.79275">
        <ele>599.59</ele>
        <time>2020-02-18T08:57:53Z</time>
      </trkpt>
      <trkpt lat="43.4489" lon="5.79279">
        <ele>598.79</ele>
        <time>2020-02-18T08:57:58Z</time>
      </trkpt>
      <trkpt lat="43.4489" lon="5.79297">
        <ele>598.16</ele>
        <time>2020-02-18T08:58:09Z</time>
      </trkpt>
      <trkpt lat="43.4489" lon="5.79311">
        <ele>598.08</ele>
        <time>2020-02-18T08:58:16Z</time>
      </trkpt>
      <trkpt lat="43.44914" lon="5.79324">
        <ele>598.13</ele>
        <time>2020-02-18T08:58:35Z</time>
      </trkpt>
      <trkpt lat="43.4492" lon="5.79338">
        <ele>597.08</ele>
        <time>2020-02-18T08:58:47Z</time>
      </trkpt>
      <trkpt lat="43.4492" lon="5.79346">
        <ele>596.93</ele>
        <time>2020-02-18T08:58:52Z</time>
      </trkpt>
      <trkpt lat="43.44927" lon="5.79384">
        <ele>597.37</ele>
        <time>2020-02-18T08:59:11Z</time>
      </trkpt>
      <trkpt lat="43.44937" lon="5.79407">
        <ele>599.35</ele>
        <time>2020-02-18T08:59:28Z</time>
      </trkpt>
      <trkpt lat="43.44937" lon="5.7944">
        <ele>601.43</ele>
        <time>2020-02-18T08:59:48Z</time>
      </trkpt>
      <trkpt lat="43.44934" lon="5.79472">
        <ele>604.25</ele>
        <time>2020-02-18T09:00:10Z</time>
      </trkpt>
      <trkpt lat="43.44932" lon="5.79504">
        <ele>607.13</ele>
        <time>2020-02-18T09:00:31Z</time>
      </trkpt>
      <trkpt lat="43.4493" lon="5.79534">
        <ele>610.16</ele>
        <time>2020-02-18T09:00:47Z</time>
      </trkpt>
      <trkpt lat="43.44934" lon="5.79567">
        <ele>612.94</ele>
        <time>2020-02-18T09:01:06Z</time>
      </trkpt>
      <trkpt lat="43.4493" lon="5.79602">
        <ele>615.96</ele>
        <time>2020-02-18T09:01:27Z</time>
      </trkpt>
      <trkpt lat="43.44925" lon="5.79627">
        <ele>618.97</ele>
        <time>2020-02-18T09:01:46Z</time>
      </trkpt>
      <trkpt lat="43.44917" lon="5.79665">
        <ele>621.98</ele>
        <time>2020-02-18T09:02:06Z</time>
      </trkpt>
      <trkpt lat="43.44909" lon="5.79699">
        <ele>625.1</ele>
        <time>2020-02-18T09:02:27Z</time>
      </trkpt>
      <trkpt lat="43.44904" lon="5.79729">
        <ele>628.22</ele>
        <time>2020-02-18T09:02:47Z</time>
      </trkpt>
      <trkpt lat="43.44897" lon="5.79758">
        <ele>631.21</ele>
        <time>2020-02-18T09:03:05Z</time>
      </trkpt>
      <trkpt lat="43.44889" lon="5.79781">
        <ele>633.35</ele>
        <time>2020-02-18T09:03:23Z</time>
      </trkpt>
      <trkpt lat="43.44867" lon="5.79792">
        <ele>635.36</ele>
        <time>2020-02-18T09:03:43Z</time>
      </trkpt>
      <trkpt lat="43.44852" lon="5.79803">
        <ele>637.22</ele>
        <time>2020-02-18T09:04:03Z</time>
      </trkpt>
      <trkpt lat="43.44849" lon="5.79845">
        <ele>639.88</ele>
        <time>2020-02-18T09:04:24Z</time>
      </trkpt>
      <trkpt lat="43.4485" lon="5.79876">
        <ele>640.56</ele>
        <time>2020-02-18T09:04:39Z</time>
      </trkpt>
      <trkpt lat="43.44849" lon="5.79903">
        <ele>640.1</ele>
        <time>2020-02-18T09:04:54Z</time>
      </trkpt>
      <trkpt lat="43.44841" lon="5.79907">
        <ele>640.84</ele>
        <time>2020-02-18T09:05:13Z</time>
      </trkpt>
      <trkpt lat="43.44834" lon="5.79907">
        <ele>642.38</ele>
        <time>2020-02-18T09:05:36Z</time>
      </trkpt>
      <trkpt lat="43.44827" lon="5.79904">
        <ele>645.54</ele>
        <time>2020-02-18T09:05:50Z</time>
      </trkpt>
      <trkpt lat="43.44819" lon="5.79899">
        <ele>648.63</ele>
        <time>2020-02-18T09:06:03Z</time>
      </trkpt>
      <trkpt lat="43.4481" lon="5.79896">
        <ele>651.75</ele>
        <time>2020-02-18T09:06:18Z</time>
      </trkpt>
      <trkpt lat="43.44801" lon="5.79897">
        <ele>654.86</ele>
        <time>2020-02-18T09:06:33Z</time>
      </trkpt>
      <trkpt lat="43.44792" lon="5.79892">
        <ele>657.96</ele>
        <time>2020-02-18T09:06:50Z</time>
      </trkpt>
      <trkpt lat="43.44784" lon="5.79893">
        <ele>661.07</ele>
        <time>2020-02-18T09:07:06Z</time>
      </trkpt>
      <trkpt lat="43.44776" lon="5.79895">
        <ele>664.22</ele>
        <time>2020-02-18T09:07:19Z</time>
      </trkpt>
      <trkpt lat="43.44766" lon="5.79892">
        <ele>667.44</ele>
        <time>2020-02-18T09:07:36Z</time>
      </trkpt>
      <trkpt lat="43.44758" lon="5.79892">
        <ele>670.5</ele>
        <time>2020-02-18T09:07:51Z</time>
      </trkpt>
      <trkpt lat="43.44752" lon="5.79884">
        <ele>673.66</ele>
        <time>2020-02-18T09:08:05Z</time>
      </trkpt>
      <trkpt lat="43.44747" lon="5.79878">
        <ele>676.69</ele>
        <time>2020-02-18T09:08:18Z</time>
      </trkpt>
      <trkpt lat="43.44742" lon="5.79872">
        <ele>679.82</ele>
        <time>2020-02-18T09:08:32Z</time>
      </trkpt>
      <trkpt lat="43.44738" lon="5.79863">
        <ele>682.99</ele>
        <time>2020-02-18T09:08:49Z</time>
      </trkpt>
      <trkpt lat="43.44729" lon="5.79854">
        <ele>686.09</ele>
        <time>2020-02-18T09:09:08Z</time>
      </trkpt>
      <trkpt lat="43.44722" lon="5.79847">
        <ele>689.15</ele>
        <time>2020-02-18T09:09:25Z</time>
      </trkpt>
      <trkpt lat="43.44718" lon="5.79835">
        <ele>692.3</ele>
        <time>2020-02-18T09:09:41Z</time>
      </trkpt>
      <trkpt lat="43.44713" lon="5.79828">
        <ele>695.42</ele>
        <time>2020-02-18T09:09:55Z</time>
      </trkpt>
      <trkpt lat="43.44709" lon="5.79823">
        <ele>698.43</ele>
        <time>2020-02-18T09:10:07Z</time>
      </trkpt>
      <trkpt lat="43.44704" lon="5.79813">
        <ele>701.48</ele>
        <time>2020-02-18T09:10:23Z</time>
      </trkpt>
      <trkpt lat="43.44698" lon="5.79805">
        <ele>704.49</ele>
        <time>2020-02-18T09:10:36Z</time>
      </trkpt>
      <trkpt lat="43.44693" lon="5.79804">
        <ele>707.67</ele>
        <time>2020-02-18T09:10:47Z</time>
      </trkpt>
      <trkpt lat="43.44684" lon="5.79795">
        <ele>710.64</ele>
        <time>2020-02-18T09:11:08Z</time>
      </trkpt>
      <trkpt lat="43.44673" lon="5.79791">
        <ele>713.66</ele>
        <time>2020-02-18T09:11:24Z</time>
      </trkpt>
      <trkpt lat="43.44666" lon="5.7979">
        <ele>716.69</ele>
        <time>2020-02-18T09:11:37Z</time>
      </trkpt>
      <trkpt lat="43.44656" lon="5.79789">
        <ele>719.71</ele>
        <time>2020-02-18T09:11:52Z</time>
      </trkpt>
      <trkpt lat="43.44646" lon="5.79782">
        <ele>722.77</ele>
        <time>2020-02-18T09:12:04Z</time>
      </trkpt>
      <trkpt lat="43.44634" lon="5.79774">
        <ele>726</ele>
        <time>2020-02-18T09:12:21Z</time>
      </trkpt>
      <trkpt lat="43.44627" lon="5.7977">
        <ele>729.09</ele>
        <time>2020-02-18T09:12:31Z</time>
      </trkpt>
      <trkpt lat="43.44614" lon="5.79764">
        <ele>732.23</ele>
        <time>2020-02-18T09:12:49Z</time>
      </trkpt>
      <trkpt lat="43.44607" lon="5.7976">
        <ele>735.4</ele>
        <time>2020-02-18T09:13:02Z</time>
      </trkpt>
      <trkpt lat="43.44595" lon="5.7975">
        <ele>738.6</ele>
        <time>2020-02-18T09:13:20Z</time>
      </trkpt>
      <trkpt lat="43.44587" lon="5.79737">
        <ele>741.87</ele>
        <time>2020-02-18T09:13:37Z</time>
      </trkpt>
      <trkpt lat="43.4458" lon="5.79726">
        <ele>744.93</ele>
        <time>2020-02-18T09:13:53Z</time>
      </trkpt>
      <trkpt lat="43.44576" lon="5.79717">
        <ele>748.01</ele>
        <time>2020-02-18T09:14:05Z</time>
      </trkpt>
      <trkpt lat="43.44571" lon="5.79704">
        <ele>750.6</ele>
        <time>2020-02-18T09:14:26Z</time>
      </trkpt>
      <trkpt lat="43.44566" lon="5.79691">
        <ele>753.68</ele>
        <time>2020-02-18T09:14:41Z</time>
      </trkpt>
      <trkpt lat="43.44562" lon="5.79669">
        <ele>756.77</ele>
        <time>2020-02-18T09:15:01Z</time>
      </trkpt>
      <trkpt lat="43.44554" lon="5.79657">
        <ele>760.01</ele>
        <time>2020-02-18T09:15:18Z</time>
      </trkpt>
      <trkpt lat="43.44552" lon="5.79646">
        <ele>762.97</ele>
        <time>2020-02-18T09:15:36Z</time>
      </trkpt>
      <trkpt lat="43.4455" lon="5.79631">
        <ele>766.18</ele>
        <time>2020-02-18T09:15:51Z</time>
      </trkpt>
      <trkpt lat="43.44549" lon="5.79617">
        <ele>769.25</ele>
        <time>2020-02-18T09:16:10Z</time>
      </trkpt>
      <trkpt lat="43.44543" lon="5.79604">
        <ele>772.39</ele>
        <time>2020-02-18T09:16:25Z</time>
      </trkpt>
      <trkpt lat="43.44542" lon="5.79593">
        <ele>775.5</ele>
        <time>2020-02-18T09:16:41Z</time>
      </trkpt>
      <trkpt lat="43.44539" lon="5.79579">
        <ele>778.62</ele>
        <time>2020-02-18T09:16:58Z</time>
      </trkpt>
      <trkpt lat="43.4454" lon="5.79567">
        <ele>781.84</ele>
        <time>2020-02-18T09:17:19Z</time>
      </trkpt>
      <trkpt lat="43.4454" lon="5.79556">
        <ele>784.96</ele>
        <time>2020-02-18T09:17:38Z</time>
      </trkpt>
      <trkpt lat="43.44537" lon="5.79546">
        <ele>788.13</ele>
        <time>2020-02-18T09:17:52Z</time>
      </trkpt>
      <trkpt lat="43.44535" lon="5.79535">
        <ele>791.38</ele>
        <time>2020-02-18T09:18:05Z</time>
      </trkpt>
      <trkpt lat="43.44532" lon="5.79525">
        <ele>794.59</ele>
        <time>2020-02-18T09:18:21Z</time>
      </trkpt>
      <trkpt lat="43.44528" lon="5.79515">
        <ele>797.69</ele>
        <time>2020-02-18T09:18:36Z</time>
      </trkpt>
      <trkpt lat="43.44521" lon="5.79511">
        <ele>800.9</ele>
        <time>2020-02-18T09:18:53Z</time>
      </trkpt>
      <trkpt lat="43.44516" lon="5.79504">
        <ele>803.97</ele>
        <time>2020-02-18T09:19:09Z</time>
      </trkpt>
      <trkpt lat="43.44509" lon="5.795">
        <ele>807.02</ele>
        <time>2020-02-18T09:19:28Z</time>
      </trkpt>
      <trkpt lat="43.4451" lon="5.79494">
        <ele>810.01</ele>
        <time>2020-02-18T09:19:50Z</time>
      </trkpt>
      <trkpt lat="43.44509" lon="5.79488">
        <ele>813.22</ele>
        <time>2020-02-18T09:20:02Z</time>
      </trkpt>
      <trkpt lat="43.4451" lon="5.79483">
        <ele>816.29</ele>
        <time>2020-02-18T09:20:16Z</time>
      </trkpt>
      <trkpt lat="43.44509" lon="5.79472">
        <ele>819.36</ele>
        <time>2020-02-18T09:20:32Z</time>
      </trkpt>
      <trkpt lat="43.44509" lon="5.79461">
        <ele>822.5</ele>
        <time>2020-02-18T09:20:47Z</time>
      </trkpt>
      <trkpt lat="43.44508" lon="5.79453">
        <ele>825.58</ele>
        <time>2020-02-18T09:21:01Z</time>
      </trkpt>
      <trkpt lat="43.44504" lon="5.79446">
        <ele>828.72</ele>
        <time>2020-02-18T09:21:14Z</time>
      </trkpt>
      <trkpt lat="43.44504" lon="5.79437">
        <ele>831.82</ele>
        <time>2020-02-18T09:21:32Z</time>
      </trkpt>
      <trkpt lat="43.44501" lon="5.79426">
        <ele>834.89</ele>
        <time>2020-02-18T09:21:49Z</time>
      </trkpt>
      <trkpt lat="43.44495" lon="5.79409">
        <ele>838.03</ele>
        <time>2020-02-18T09:22:08Z</time>
      </trkpt>
      <trkpt lat="43.44483" lon="5.794">
        <ele>840.18</ele>
        <time>2020-02-18T09:22:25Z</time>
      </trkpt>
      <trkpt lat="43.44482" lon="5.7939">
        <ele>841.48</ele>
        <time>2020-02-18T09:22:39Z</time>
      </trkpt>
      <trkpt lat="43.44484" lon="5.79387">
        <ele>841.9</ele>
        <time>2020-02-18T09:22:42Z</time>
      </trkpt>
      <trkpt lat="43.44488" lon="5.79379">
        <ele>842.87</ele>
        <time>2020-02-18T09:22:48Z</time>
      </trkpt>
      <trkpt lat="43.44489" lon="5.79376">
        <ele>843.37</ele>
        <time>2020-02-18T09:22:50Z</time>
      </trkpt>
      <trkpt lat="43.44486" lon="5.79358">
        <ele>844.87</ele>
        <time>2020-02-18T09:23:02Z</time>
      </trkpt>
      <trkpt lat="43.44482" lon="5.79352">
        <ele>845.66</ele>
        <time>2020-02-18T09:23:07Z</time>
      </trkpt>
      <trkpt lat="43.44474" lon="5.79338">
        <ele>847.85</ele>
        <time>2020-02-18T09:23:23Z</time>
      </trkpt>
      <trkpt lat="43.44472" lon="5.79334">
        <ele>848.47</ele>
        <time>2020-02-18T09:23:26Z</time>
      </trkpt>
      <trkpt lat="43.44466" lon="5.79311">
        <ele>850.97</ele>
        <time>2020-02-18T09:23:42Z</time>
      </trkpt>
      <trkpt lat="43.44465" lon="5.79297">
        <ele>851.93</ele>
        <time>2020-02-18T09:23:51Z</time>
      </trkpt>
      <trkpt lat="43.44467" lon="5.79272">
        <ele>853.24</ele>
        <time>2020-02-18T09:24:05Z</time>
      </trkpt>
      <trkpt lat="43.44473" lon="5.79244">
        <ele>855.29</ele>
        <time>2020-02-18T09:24:20Z</time>
      </trkpt>
      <trkpt lat="43.44476" lon="5.79217">
        <ele>856.49</ele>
        <time>2020-02-18T09:24:35Z</time>
      </trkpt>
      <trkpt lat="43.44469" lon="5.792">
        <ele>857.32</ele>
        <time>2020-02-18T09:24:49Z</time>
      </trkpt>
      <trkpt lat="43.44466" lon="5.79194">
        <ele>857.61</ele>
        <time>2020-02-18T09:24:53Z</time>
      </trkpt>
      <trkpt lat="43.44466" lon="5.79191">
        <ele>857.96</ele>
        <time>2020-02-18T09:24:55Z</time>
      </trkpt>
      <trkpt lat="43.44472" lon="5.79167">
        <ele>859.74</ele>
        <time>2020-02-18T09:25:09Z</time>
      </trkpt>
      <trkpt lat="43.44475" lon="5.79147">
        <ele>860.91</ele>
        <time>2020-02-18T09:25:21Z</time>
      </trkpt>
      <trkpt lat="43.44481" lon="5.79128">
        <ele>862.79</ele>
        <time>2020-02-18T09:25:35Z</time>
      </trkpt>
      <trkpt lat="43.44486" lon="5.79113">
        <ele>863.66</ele>
        <time>2020-02-18T09:25:46Z</time>
      </trkpt>
      <trkpt lat="43.44487" lon="5.79104">
        <ele>864.16</ele>
        <time>2020-02-18T09:25:54Z</time>
      </trkpt>
      <trkpt lat="43.44492" lon="5.79082">
        <ele>865.11</ele>
        <time>2020-02-18T09:26:07Z</time>
      </trkpt>
      <trkpt lat="43.44495" lon="5.79069">
        <ele>867.31</ele>
        <time>2020-02-18T09:26:17Z</time>
      </trkpt>
      <trkpt lat="43.44507" lon="5.79052">
        <ele>869.57</ele>
        <time>2020-02-18T09:26:35Z</time>
      </trkpt>
      <trkpt lat="43.44509" lon="5.79051">
        <ele>869.89</ele>
        <time>2020-02-18T09:26:37Z</time>
      </trkpt>
      <trkpt lat="43.44524" lon="5.79039">
        <ele>871.59</ele>
        <time>2020-02-18T09:26:53Z</time>
      </trkpt>
      <trkpt lat="43.44525" lon="5.79039">
        <ele>871.68</ele>
        <time>2020-02-18T09:26:54Z</time>
      </trkpt>
      <trkpt lat="43.4454" lon="5.79025">
        <ele>872.28</ele>
        <time>2020-02-18T09:27:09Z</time>
      </trkpt>
      <trkpt lat="43.44542" lon="5.79021">
        <ele>872.32</ele>
        <time>2020-02-18T09:27:12Z</time>
      </trkpt>
      <trkpt lat="43.44546" lon="5.79013">
        <ele>872.05</ele>
        <time>2020-02-18T09:27:18Z</time>
      </trkpt>
      <trkpt lat="43.44553" lon="5.78999">
        <ele>874.03</ele>
        <time>2020-02-18T09:27:28Z</time>
      </trkpt>
      <trkpt lat="43.44558" lon="5.78987">
        <ele>874.23</ele>
        <time>2020-02-18T09:27:35Z</time>
      </trkpt>
      <trkpt lat="43.44565" lon="5.78976">
        <ele>874.64</ele>
        <time>2020-02-18T09:27:52Z</time>
      </trkpt>
      <trkpt lat="43.44564" lon="5.78974">
        <ele>874.08</ele>
        <time>2020-02-18T09:28:11Z</time>
      </trkpt>
      <trkpt lat="43.44564" lon="5.78973">
        <ele>874.63</ele>
        <time>2020-02-18T09:28:49Z</time>
      </trkpt>
      <trkpt lat="43.44567" lon="5.78968">
        <ele>874.73</ele>
        <time>2020-02-18T09:29:06Z</time>
      </trkpt>
      <trkpt lat="43.44567" lon="5.78964">
        <ele>874.9</ele>
        <time>2020-02-18T09:29:10Z</time>
      </trkpt>
      <trkpt lat="43.44569" lon="5.78954">
        <ele>875.28</ele>
        <time>2020-02-18T09:29:16Z</time>
      </trkpt>
      <trkpt lat="43.44568" lon="5.78938">
        <ele>874.53</ele>
        <time>2020-02-18T09:29:25Z</time>
      </trkpt>
      <trkpt lat="43.44571" lon="5.78928">
        <ele>874.44</ele>
        <time>2020-02-18T09:29:32Z</time>
      </trkpt>
      <trkpt lat="43.44572" lon="5.78926">
        <ele>874.51</ele>
        <time>2020-02-18T09:29:34Z</time>
      </trkpt>
      <trkpt lat="43.44573" lon="5.78923">
        <ele>874.55</ele>
        <time>2020-02-18T09:29:36Z</time>
      </trkpt>
      <trkpt lat="43.4458" lon="5.78912">
        <ele>875.61</ele>
        <time>2020-02-18T09:29:51Z</time>
      </trkpt>
      <trkpt lat="43.44586" lon="5.78904">
        <ele>875.77</ele>
        <time>2020-02-18T09:30:02Z</time>
      </trkpt>
      <trkpt lat="43.44594" lon="5.78886">
        <ele>876.4</ele>
        <time>2020-02-18T09:30:16Z</time>
      </trkpt>
      <trkpt lat="43.44596" lon="5.7888">
        <ele>876.39</ele>
        <time>2020-02-18T09:30:20Z</time>
      </trkpt>
      <trkpt lat="43.44597" lon="5.78872">
        <ele>876.16</ele>
        <time>2020-02-18T09:30:25Z</time>
      </trkpt>
      <trkpt lat="43.44599" lon="5.78866">
        <ele>876.18</ele>
        <time>2020-02-18T09:30:29Z</time>
      </trkpt>
      <trkpt lat="43.44604" lon="5.78853">
        <ele>876.72</ele>
        <time>2020-02-18T09:30:43Z</time>
      </trkpt>
      <trkpt lat="43.44611" lon="5.78836">
        <ele>877.68</ele>
        <time>2020-02-18T09:30:57Z</time>
      </trkpt>
      <trkpt lat="43.44616" lon="5.78822">
        <ele>878.25</ele>
        <time>2020-02-18T09:31:05Z</time>
      </trkpt>
      <trkpt lat="43.44618" lon="5.78816">
        <ele>878.91</ele>
        <time>2020-02-18T09:31:09Z</time>
      </trkpt>
      <trkpt lat="43.4462" lon="5.78809">
        <ele>879.27</ele>
        <time>2020-02-18T09:31:13Z</time>
      </trkpt>
      <trkpt lat="43.44621" lon="5.78806">
        <ele>879.38</ele>
        <time>2020-02-18T09:31:15Z</time>
      </trkpt>
      <trkpt lat="43.44627" lon="5.78795">
        <ele>879.41</ele>
        <time>2020-02-18T09:31:22Z</time>
      </trkpt>
      <trkpt lat="43.44629" lon="5.78787">
        <ele>879.61</ele>
        <time>2020-02-18T09:31:27Z</time>
      </trkpt>
      <trkpt lat="43.44632" lon="5.78768">
        <ele>880.47</ele>
        <time>2020-02-18T09:31:41Z</time>
      </trkpt>
      <trkpt lat="43.44635" lon="5.78759">
        <ele>879.77</ele>
        <time>2020-02-18T09:31:47Z</time>
      </trkpt>
      <trkpt lat="43.44638" lon="5.78757">
        <ele>879.8</ele>
        <time>2020-02-18T09:31:50Z</time>
      </trkpt>
      <trkpt lat="43.44645" lon="5.78744">
        <ele>880.49</ele>
        <time>2020-02-18T09:32:03Z</time>
      </trkpt>
      <trkpt lat="43.44654" lon="5.78737">
        <ele>881.61</ele>
        <time>2020-02-18T09:32:12Z</time>
      </trkpt>
      <trkpt lat="43.44658" lon="5.78728">
        <ele>881.89</ele>
        <time>2020-02-18T09:32:18Z</time>
      </trkpt>
      <trkpt lat="43.44659" lon="5.78724">
        <ele>881.93</ele>
        <time>2020-02-18T09:32:20Z</time>
      </trkpt>
      <trkpt lat="43.44664" lon="5.78709">
        <ele>882.32</ele>
        <time>2020-02-18T09:32:29Z</time>
      </trkpt>
      <trkpt lat="43.44678" lon="5.78686">
        <ele>881.91</ele>
        <time>2020-02-18T09:32:43Z</time>
      </trkpt>
      <trkpt lat="43.44678" lon="5.78685">
        <ele>881.97</ele>
        <time>2020-02-18T09:32:44Z</time>
      </trkpt>
      <trkpt lat="43.44682" lon="5.78676">
        <ele>881.97</ele>
        <time>2020-02-18T09:32:49Z</time>
      </trkpt>
      <trkpt lat="43.44686" lon="5.78663">
        <ele>881.5</ele>
        <time>2020-02-18T09:32:56Z</time>
      </trkpt>
      <trkpt lat="43.44686" lon="5.78656">
        <ele>881.11</ele>
        <time>2020-02-18T09:32:59Z</time>
      </trkpt>
      <trkpt lat="43.44688" lon="5.78651">
        <ele>880.77</ele>
        <time>2020-02-18T09:33:02Z</time>
      </trkpt>
      <trkpt lat="43.44693" lon="5.78625">
        <ele>880.41</ele>
        <time>2020-02-18T09:33:16Z</time>
      </trkpt>
      <trkpt lat="43.44694" lon="5.7862">
        <ele>880.4</ele>
        <time>2020-02-18T09:33:18Z</time>
      </trkpt>
      <trkpt lat="43.44695" lon="5.78616">
        <ele>880.07</ele>
        <time>2020-02-18T09:33:21Z</time>
      </trkpt>
      <trkpt lat="43.44701" lon="5.78605">
        <ele>879.71</ele>
        <time>2020-02-18T09:33:28Z</time>
      </trkpt>
      <trkpt lat="43.44703" lon="5.78603">
        <ele>879.93</ele>
        <time>2020-02-18T09:33:30Z</time>
      </trkpt>
      <trkpt lat="43.44708" lon="5.78583">
        <ele>881.01</ele>
        <time>2020-02-18T09:33:42Z</time>
      </trkpt>
      <trkpt lat="43.44716" lon="5.78576">
        <ele>881.8</ele>
        <time>2020-02-18T09:33:49Z</time>
      </trkpt>
      <trkpt lat="43.44724" lon="5.78562">
        <ele>881.99</ele>
        <time>2020-02-18T09:33:59Z</time>
      </trkpt>
      <trkpt lat="43.44735" lon="5.78546">
        <ele>882.54</ele>
        <time>2020-02-18T09:34:10Z</time>
      </trkpt>
      <trkpt lat="43.44747" lon="5.78522">
        <ele>883.29</ele>
        <time>2020-02-18T09:34:24Z</time>
      </trkpt>
      <trkpt lat="43.44757" lon="5.78504">
        <ele>883.58</ele>
        <time>2020-02-18T09:34:36Z</time>
      </trkpt>
      <trkpt lat="43.4476" lon="5.78494">
        <ele>883.58</ele>
        <time>2020-02-18T09:34:42Z</time>
      </trkpt>
      <trkpt lat="43.44765" lon="5.78474">
        <ele>882.44</ele>
        <time>2020-02-18T09:34:55Z</time>
      </trkpt>
      <trkpt lat="43.44773" lon="5.78451">
        <ele>881.22</ele>
        <time>2020-02-18T09:35:09Z</time>
      </trkpt>
      <trkpt lat="43.44774" lon="5.7843">
        <ele>880.99</ele>
        <time>2020-02-18T09:35:21Z</time>
      </trkpt>
      <trkpt lat="43.44782" lon="5.78408">
        <ele>879.93</ele>
        <time>2020-02-18T09:35:37Z</time>
      </trkpt>
      <trkpt lat="43.44788" lon="5.78396">
        <ele>879.66</ele>
        <time>2020-02-18T09:35:44Z</time>
      </trkpt>
      <trkpt lat="43.44794" lon="5.78379">
        <ele>880.08</ele>
        <time>2020-02-18T09:35:53Z</time>
      </trkpt>
      <trkpt lat="43.44801" lon="5.78369">
        <ele>880.81</ele>
        <time>2020-02-18T09:36:02Z</time>
      </trkpt>
      <trkpt lat="43.44802" lon="5.78362">
        <ele>881.38</ele>
        <time>2020-02-18T09:36:07Z</time>
      </trkpt>
      <trkpt lat="43.44807" lon="5.78349">
        <ele>881.69</ele>
        <time>2020-02-18T09:36:15Z</time>
      </trkpt>
      <trkpt lat="43.44819" lon="5.78327">
        <ele>882.74</ele>
        <time>2020-02-18T09:36:30Z</time>
      </trkpt>
      <trkpt lat="43.44833" lon="5.78308">
        <ele>884.6</ele>
        <time>2020-02-18T09:36:45Z</time>
      </trkpt>
      <trkpt lat="43.44837" lon="5.78302">
        <ele>884.54</ele>
        <time>2020-02-18T09:36:53Z</time>
      </trkpt>
      <trkpt lat="43.44842" lon="5.78295">
        <ele>884.54</ele>
        <time>2020-02-18T09:36:59Z</time>
      </trkpt>
      <trkpt lat="43.44849" lon="5.78282">
        <ele>884.38</ele>
        <time>2020-02-18T09:37:07Z</time>
      </trkpt>
      <trkpt lat="43.44852" lon="5.78264">
        <ele>883.42</ele>
        <time>2020-02-18T09:37:18Z</time>
      </trkpt>
      <trkpt lat="43.44856" lon="5.78237">
        <ele>881.19</ele>
        <time>2020-02-18T09:37:33Z</time>
      </trkpt>
      <trkpt lat="43.4486" lon="5.78221">
        <ele>880.47</ele>
        <time>2020-02-18T09:37:42Z</time>
      </trkpt>
      <trkpt lat="43.44866" lon="5.7821">
        <ele>880.81</ele>
        <time>2020-02-18T09:37:50Z</time>
      </trkpt>
      <trkpt lat="43.4487" lon="5.78201">
        <ele>881.69</ele>
        <time>2020-02-18T09:37:56Z</time>
      </trkpt>
      <trkpt lat="43.44871" lon="5.78184">
        <ele>883.29</ele>
        <time>2020-02-18T09:38:08Z</time>
      </trkpt>
      <trkpt lat="43.44872" lon="5.78183">
        <ele>883.32</ele>
        <time>2020-02-18T09:38:09Z</time>
      </trkpt>
      <trkpt lat="43.44873" lon="5.78175">
        <ele>882.86</ele>
        <time>2020-02-18T09:38:14Z</time>
      </trkpt>
      <trkpt lat="43.44876" lon="5.78169">
        <ele>882.75</ele>
        <time>2020-02-18T09:38:18Z</time>
      </trkpt>
      <trkpt lat="43.4488" lon="5.78152">
        <ele>883.17</ele>
        <time>2020-02-18T09:38:28Z</time>
      </trkpt>
      <trkpt lat="43.44892" lon="5.78132">
        <ele>884.21</ele>
        <time>2020-02-18T09:38:43Z</time>
      </trkpt>
      <trkpt lat="43.44896" lon="5.78125">
        <ele>884.59</ele>
        <time>2020-02-18T09:38:48Z</time>
      </trkpt>
      <trkpt lat="43.449" lon="5.78117">
        <ele>884.85</ele>
        <time>2020-02-18T09:38:54Z</time>
      </trkpt>
      <trkpt lat="43.44902" lon="5.78111">
        <ele>885.08</ele>
        <time>2020-02-18T09:38:58Z</time>
      </trkpt>
      <trkpt lat="43.44904" lon="5.78106">
        <ele>885.27</ele>
        <time>2020-02-18T09:39:01Z</time>
      </trkpt>
      <trkpt lat="43.44917" lon="5.78082">
        <ele>886.72</ele>
        <time>2020-02-18T09:39:17Z</time>
      </trkpt>
      <trkpt lat="43.4492" lon="5.78063">
        <ele>886.44</ele>
        <time>2020-02-18T09:39:30Z</time>
      </trkpt>
      <trkpt lat="43.44926" lon="5.78039">
        <ele>885.63</ele>
        <time>2020-02-18T09:39:42Z</time>
      </trkpt>
      <trkpt lat="43.44937" lon="5.78011">
        <ele>887.47</ele>
        <time>2020-02-18T09:39:59Z</time>
      </trkpt>
      <trkpt lat="43.44942" lon="5.77999">
        <ele>887.59</ele>
        <time>2020-02-18T09:40:07Z</time>
      </trkpt>
      <trkpt lat="43.44947" lon="5.77975">
        <ele>887.09</ele>
        <time>2020-02-18T09:40:21Z</time>
      </trkpt>
      <trkpt lat="43.44952" lon="5.77964">
        <ele>887.39</ele>
        <time>2020-02-18T09:40:28Z</time>
      </trkpt>
      <trkpt lat="43.44952" lon="5.7796">
        <ele>887.6</ele>
        <time>2020-02-18T09:40:30Z</time>
      </trkpt>
      <trkpt lat="43.4496" lon="5.77937">
        <ele>888.46</ele>
        <time>2020-02-18T09:40:43Z</time>
      </trkpt>
      <trkpt lat="43.44963" lon="5.7793">
        <ele>888.45</ele>
        <time>2020-02-18T09:40:47Z</time>
      </trkpt>
      <trkpt lat="43.44972" lon="5.77911">
        <ele>888.43</ele>
        <time>2020-02-18T09:40:58Z</time>
      </trkpt>
      <trkpt lat="43.44975" lon="5.77897">
        <ele>888.57</ele>
        <time>2020-02-18T09:41:06Z</time>
      </trkpt>
      <trkpt lat="43.44977" lon="5.77891">
        <ele>888.42</ele>
        <time>2020-02-18T09:41:10Z</time>
      </trkpt>
      <trkpt lat="43.44977" lon="5.77888">
        <ele>888.53</ele>
        <time>2020-02-18T09:41:12Z</time>
      </trkpt>
      <trkpt lat="43.44983" lon="5.77869">
        <ele>888.35</ele>
        <time>2020-02-18T09:41:24Z</time>
      </trkpt>
      <trkpt lat="43.44986" lon="5.7786">
        <ele>888.25</ele>
        <time>2020-02-18T09:41:30Z</time>
      </trkpt>
      <trkpt lat="43.44989" lon="5.77854">
        <ele>888.2</ele>
        <time>2020-02-18T09:41:34Z</time>
      </trkpt>
      <trkpt lat="43.44991" lon="5.7785">
        <ele>888.58</ele>
        <time>2020-02-18T09:41:37Z</time>
      </trkpt>
      <trkpt lat="43.44995" lon="5.77843">
        <ele>888.99</ele>
        <time>2020-02-18T09:41:42Z</time>
      </trkpt>
      <trkpt lat="43.44997" lon="5.77837">
        <ele>889.12</ele>
        <time>2020-02-18T09:41:46Z</time>
      </trkpt>
      <trkpt lat="43.45003" lon="5.77827">
        <ele>889.47</ele>
        <time>2020-02-18T09:42:02Z</time>
      </trkpt>
      <trkpt lat="43.45004" lon="5.77825">
        <ele>889.39</ele>
        <time>2020-02-18T09:42:28Z</time>
      </trkpt>
      <trkpt lat="43.45005" lon="5.77817">
        <ele>889.88</ele>
        <time>2020-02-18T09:42:51Z</time>
      </trkpt>
      <trkpt lat="43.45013" lon="5.77801">
        <ele>890.41</ele>
        <time>2020-02-18T09:43:08Z</time>
      </trkpt>
      <trkpt lat="43.45026" lon="5.77786">
        <ele>890.73</ele>
        <time>2020-02-18T09:43:22Z</time>
      </trkpt>
      <trkpt lat="43.45029" lon="5.77773">
        <ele>890.43</ele>
        <time>2020-02-18T09:43:30Z</time>
      </trkpt>
      <trkpt lat="43.45033" lon="5.77763">
        <ele>889.98</ele>
        <time>2020-02-18T09:43:36Z</time>
      </trkpt>
      <trkpt lat="43.45041" lon="5.77736">
        <ele>889.6</ele>
        <time>2020-02-18T09:43:51Z</time>
      </trkpt>
      <trkpt lat="43.45043" lon="5.77726">
        <ele>889.6</ele>
        <time>2020-02-18T09:43:57Z</time>
      </trkpt>
      <trkpt lat="43.45039" lon="5.77703">
        <ele>889.25</ele>
        <time>2020-02-18T09:44:09Z</time>
      </trkpt>
      <trkpt lat="43.45048" lon="5.77667">
        <ele>888.96</ele>
        <time>2020-02-18T09:44:27Z</time>
      </trkpt>
      <trkpt lat="43.45061" lon="5.7763">
        <ele>888.81</ele>
        <time>2020-02-18T09:44:48Z</time>
      </trkpt>
      <trkpt lat="43.45067" lon="5.77616">
        <ele>888.6</ele>
        <time>2020-02-18T09:44:56Z</time>
      </trkpt>
      <trkpt lat="43.45071" lon="5.7759">
        <ele>888.81</ele>
        <time>2020-02-18T09:45:11Z</time>
      </trkpt>
      <trkpt lat="43.45074" lon="5.77584">
        <ele>888.44</ele>
        <time>2020-02-18T09:45:15Z</time>
      </trkpt>
      <trkpt lat="43.45079" lon="5.77564">
        <ele>888.12</ele>
        <time>2020-02-18T09:45:27Z</time>
      </trkpt>
      <trkpt lat="43.45086" lon="5.77532">
        <ele>888.27</ele>
        <time>2020-02-18T09:45:44Z</time>
      </trkpt>
      <trkpt lat="43.45096" lon="5.77507">
        <ele>889.23</ele>
        <time>2020-02-18T09:45:59Z</time>
      </trkpt>
      <trkpt lat="43.451" lon="5.77483">
        <ele>888.75</ele>
        <time>2020-02-18T09:46:12Z</time>
      </trkpt>
      <trkpt lat="43.45102" lon="5.77445">
        <ele>888.33</ele>
        <time>2020-02-18T09:46:30Z</time>
      </trkpt>
      <trkpt lat="43.45103" lon="5.77415">
        <ele>887.97</ele>
        <time>2020-02-18T09:46:45Z</time>
      </trkpt>
      <trkpt lat="43.45107" lon="5.77388">
        <ele>887.67</ele>
        <time>2020-02-18T09:46:59Z</time>
      </trkpt>
      <trkpt lat="43.45106" lon="5.7738">
        <ele>887.58</ele>
        <time>2020-02-18T09:47:04Z</time>
      </trkpt>
      <trkpt lat="43.45108" lon="5.77351">
        <ele>888.04</ele>
        <time>2020-02-18T09:47:20Z</time>
      </trkpt>
      <trkpt lat="43.45106" lon="5.7733">
        <ele>888.61</ele>
        <time>2020-02-18T09:47:33Z</time>
      </trkpt>
      <trkpt lat="43.45106" lon="5.77308">
        <ele>889.07</ele>
        <time>2020-02-18T09:47:46Z</time>
      </trkpt>
      <trkpt lat="43.45106" lon="5.77296">
        <ele>889.12</ele>
        <time>2020-02-18T09:47:53Z</time>
      </trkpt>
      <trkpt lat="43.45109" lon="5.77283">
        <ele>888.96</ele>
        <time>2020-02-18T09:48:00Z</time>
      </trkpt>
      <trkpt lat="43.4511" lon="5.77276">
        <ele>889.01</ele>
        <time>2020-02-18T09:48:04Z</time>
      </trkpt>
      <trkpt lat="43.45111" lon="5.77258">
        <ele>889.85</ele>
        <time>2020-02-18T09:48:15Z</time>
      </trkpt>
      <trkpt lat="43.45115" lon="5.77241">
        <ele>890.16</ele>
        <time>2020-02-18T09:48:26Z</time>
      </trkpt>
      <trkpt lat="43.45114" lon="5.77222">
        <ele>890.61</ele>
        <time>2020-02-18T09:48:40Z</time>
      </trkpt>
      <trkpt lat="43.45113" lon="5.77197">
        <ele>890.46</ele>
        <time>2020-02-18T09:49:01Z</time>
      </trkpt>
      <trkpt lat="43.45116" lon="5.77187">
        <ele>890.4</ele>
        <time>2020-02-18T09:49:08Z</time>
      </trkpt>
      <trkpt lat="43.45119" lon="5.77182">
        <ele>890.64</ele>
        <time>2020-02-18T09:49:12Z</time>
      </trkpt>
      <trkpt lat="43.45122" lon="5.7717">
        <ele>890.9</ele>
        <time>2020-02-18T09:49:19Z</time>
      </trkpt>
      <trkpt lat="43.45123" lon="5.77164">
        <ele>890.87</ele>
        <time>2020-02-18T09:49:23Z</time>
      </trkpt>
      <trkpt lat="43.45124" lon="5.77133">
        <ele>888.98</ele>
        <time>2020-02-18T09:49:38Z</time>
      </trkpt>
      <trkpt lat="43.45125" lon="5.77111">
        <ele>888.22</ele>
        <time>2020-02-18T09:49:51Z</time>
      </trkpt>
      <trkpt lat="43.45125" lon="5.77108">
        <ele>888.08</ele>
        <time>2020-02-18T09:49:53Z</time>
      </trkpt>
      <trkpt lat="43.4512" lon="5.77087">
        <ele>886.63</ele>
        <time>2020-02-18T09:50:05Z</time>
      </trkpt>
      <trkpt lat="43.45117" lon="5.77068">
        <ele>885.96</ele>
        <time>2020-02-18T09:50:15Z</time>
      </trkpt>
      <trkpt lat="43.45114" lon="5.77044">
        <ele>885.78</ele>
        <time>2020-02-18T09:50:28Z</time>
      </trkpt>
      <trkpt lat="43.45113" lon="5.7704">
        <ele>885.82</ele>
        <time>2020-02-18T09:50:30Z</time>
      </trkpt>
      <trkpt lat="43.4511" lon="5.77034">
        <ele>886.08</ele>
        <time>2020-02-18T09:50:34Z</time>
      </trkpt>
      <trkpt lat="43.45102" lon="5.77009">
        <ele>885.16</ele>
        <time>2020-02-18T09:50:48Z</time>
      </trkpt>
      <trkpt lat="43.451" lon="5.76977">
        <ele>884.43</ele>
        <time>2020-02-18T09:51:04Z</time>
      </trkpt>
      <trkpt lat="43.45093" lon="5.76942">
        <ele>882.34</ele>
        <time>2020-02-18T09:51:21Z</time>
      </trkpt>
      <trkpt lat="43.4509" lon="5.76906">
        <ele>881.49</ele>
        <time>2020-02-18T09:51:38Z</time>
      </trkpt>
      <trkpt lat="43.45089" lon="5.76878">
        <ele>881.89</ele>
        <time>2020-02-18T09:51:53Z</time>
      </trkpt>
      <trkpt lat="43.45087" lon="5.76846">
        <ele>882.74</ele>
        <time>2020-02-18T09:52:09Z</time>
      </trkpt>
      <trkpt lat="43.45084" lon="5.76828">
        <ele>880.21</ele>
        <time>2020-02-18T09:52:24Z</time>
      </trkpt>
      <trkpt lat="43.45085" lon="5.76807">
        <ele>878.98</ele>
        <time>2020-02-18T09:52:37Z</time>
      </trkpt>
      <trkpt lat="43.45085" lon="5.76775">
        <ele>875.94</ele>
        <time>2020-02-18T09:52:54Z</time>
      </trkpt>
      <trkpt lat="43.45086" lon="5.76765">
        <ele>874.86</ele>
        <time>2020-02-18T09:52:59Z</time>
      </trkpt>
      <trkpt lat="43.45087" lon="5.76745">
        <ele>872.48</ele>
        <time>2020-02-18T09:53:12Z</time>
      </trkpt>
      <trkpt lat="43.45086" lon="5.76739">
        <ele>871.35</ele>
        <time>2020-02-18T09:53:17Z</time>
      </trkpt>
      <trkpt lat="43.45087" lon="5.76733">
        <ele>870.04</ele>
        <time>2020-02-18T09:53:21Z</time>
      </trkpt>
      <trkpt lat="43.45086" lon="5.76724">
        <ele>868.61</ele>
        <time>2020-02-18T09:53:26Z</time>
      </trkpt>
      <trkpt lat="43.45084" lon="5.76709">
        <ele>867.64</ele>
        <time>2020-02-18T09:53:34Z</time>
      </trkpt>
      <trkpt lat="43.45083" lon="5.76706">
        <ele>867.38</ele>
        <time>2020-02-18T09:53:36Z</time>
      </trkpt>
      <trkpt lat="43.4508" lon="5.76677">
        <ele>864.19</ele>
        <time>2020-02-18T09:53:50Z</time>
      </trkpt>
      <trkpt lat="43.4508" lon="5.76663">
        <ele>863.1</ele>
        <time>2020-02-18T09:53:57Z</time>
      </trkpt>
      <trkpt lat="43.45079" lon="5.76638">
        <ele>860.48</ele>
        <time>2020-02-18T09:54:12Z</time>
      </trkpt>
      <trkpt lat="43.45072" lon="5.7661">
        <ele>859.6</ele>
        <time>2020-02-18T09:54:28Z</time>
      </trkpt>
      <trkpt lat="43.45069" lon="5.76604">
        <ele>859.46</ele>
        <time>2020-02-18T09:54:32Z</time>
      </trkpt>
      <trkpt lat="43.4506" lon="5.76589">
        <ele>860.01</ele>
        <time>2020-02-18T09:54:44Z</time>
      </trkpt>
      <trkpt lat="43.45054" lon="5.76582">
        <ele>860.34</ele>
        <time>2020-02-18T09:54:51Z</time>
      </trkpt>
      <trkpt lat="43.45049" lon="5.76579">
        <ele>860.34</ele>
        <time>2020-02-18T09:54:55Z</time>
      </trkpt>
      <trkpt lat="43.45044" lon="5.76573">
        <ele>860.08</ele>
        <time>2020-02-18T09:55:01Z</time>
      </trkpt>
      <trkpt lat="43.45033" lon="5.76562">
        <ele>860.49</ele>
        <time>2020-02-18T09:55:14Z</time>
      </trkpt>
      <trkpt lat="43.45021" lon="5.76544">
        <ele>862.21</ele>
        <time>2020-02-18T09:55:29Z</time>
      </trkpt>
      <trkpt lat="43.45013" lon="5.76535">
        <ele>863.35</ele>
        <time>2020-02-18T09:55:38Z</time>
      </trkpt>
      <trkpt lat="43.45007" lon="5.7653">
        <ele>864.09</ele>
        <time>2020-02-18T09:55:43Z</time>
      </trkpt>
      <trkpt lat="43.45004" lon="5.76526">
        <ele>864.47</ele>
        <time>2020-02-18T09:55:46Z</time>
      </trkpt>
      <trkpt lat="43.45001" lon="5.76519">
        <ele>864.92</ele>
        <time>2020-02-18T09:55:52Z</time>
      </trkpt>
      <trkpt lat="43.4499" lon="5.76506">
        <ele>866.34</ele>
        <time>2020-02-18T09:56:04Z</time>
      </trkpt>
      <trkpt lat="43.44984" lon="5.765">
        <ele>866.97</ele>
        <time>2020-02-18T09:56:12Z</time>
      </trkpt>
      <trkpt lat="43.44972" lon="5.76487">
        <ele>866.9</ele>
        <time>2020-02-18T09:56:25Z</time>
      </trkpt>
      <trkpt lat="43.4496" lon="5.76478">
        <ele>865.41</ele>
        <time>2020-02-18T09:56:37Z</time>
      </trkpt>
      <trkpt lat="43.44957" lon="5.76475">
        <ele>864.93</ele>
        <time>2020-02-18T09:56:40Z</time>
      </trkpt>
      <trkpt lat="43.4495" lon="5.76452">
        <ele>863.31</ele>
        <time>2020-02-18T09:56:57Z</time>
      </trkpt>
      <trkpt lat="43.44949" lon="5.76449">
        <ele>863.25</ele>
        <time>2020-02-18T09:56:59Z</time>
      </trkpt>
      <trkpt lat="43.44945" lon="5.76438">
        <ele>862.84</ele>
        <time>2020-02-18T09:57:09Z</time>
      </trkpt>
      <trkpt lat="43.44944" lon="5.76436">
        <ele>862.6</ele>
        <time>2020-02-18T09:57:11Z</time>
      </trkpt>
      <trkpt lat="43.44938" lon="5.76415">
        <ele>860.66</ele>
        <time>2020-02-18T09:57:26Z</time>
      </trkpt>
      <trkpt lat="43.44939" lon="5.76401">
        <ele>861.25</ele>
        <time>2020-02-18T09:57:36Z</time>
      </trkpt>
      <trkpt lat="43.44938" lon="5.76393">
        <ele>861.39</ele>
        <time>2020-02-18T09:57:43Z</time>
      </trkpt>
      <trkpt lat="43.44939" lon="5.7639">
        <ele>861.43</ele>
        <time>2020-02-18T09:57:45Z</time>
      </trkpt>
      <trkpt lat="43.44938" lon="5.76384">
        <ele>861.66</ele>
        <time>2020-02-18T09:57:49Z</time>
      </trkpt>
      <trkpt lat="43.44937" lon="5.76371">
        <ele>861.12</ele>
        <time>2020-02-18T09:57:56Z</time>
      </trkpt>
      <trkpt lat="43.44939" lon="5.7636">
        <ele>860.3</ele>
        <time>2020-02-18T09:58:03Z</time>
      </trkpt>
      <trkpt lat="43.44938" lon="5.76348">
        <ele>859.81</ele>
        <time>2020-02-18T09:58:10Z</time>
      </trkpt>
      <trkpt lat="43.44937" lon="5.76332">
        <ele>858.56</ele>
        <time>2020-02-18T09:58:26Z</time>
      </trkpt>
      <trkpt lat="43.44929" lon="5.76309">
        <ele>856.22</ele>
        <time>2020-02-18T09:58:42Z</time>
      </trkpt>
      <trkpt lat="43.4492" lon="5.76293">
        <ele>853.67</ele>
        <time>2020-02-18T09:58:54Z</time>
      </trkpt>
      <trkpt lat="43.4491" lon="5.76277">
        <ele>850.66</ele>
        <time>2020-02-18T09:59:07Z</time>
      </trkpt>
      <trkpt lat="43.44907" lon="5.76274">
        <ele>849.93</ele>
        <time>2020-02-18T09:59:10Z</time>
      </trkpt>
      <trkpt lat="43.44897" lon="5.76266">
        <ele>848.26</ele>
        <time>2020-02-18T09:59:18Z</time>
      </trkpt>
      <trkpt lat="43.44874" lon="5.76252">
        <ele>846.29</ele>
        <time>2020-02-18T09:59:35Z</time>
      </trkpt>
      <trkpt lat="43.44872" lon="5.76251">
        <ele>846.2</ele>
        <time>2020-02-18T09:59:36Z</time>
      </trkpt>
      <trkpt lat="43.44869" lon="5.76249">
        <ele>846.29</ele>
        <time>2020-02-18T09:59:40Z</time>
      </trkpt>
      <trkpt lat="43.44858" lon="5.76243">
        <ele>847.28</ele>
        <time>2020-02-18T09:59:52Z</time>
      </trkpt>
      <trkpt lat="43.44856" lon="5.76243">
        <ele>847.34</ele>
        <time>2020-02-18T09:59:54Z</time>
      </trkpt>
      <trkpt lat="43.44845" lon="5.7624">
        <ele>848.11</ele>
        <time>2020-02-18T10:00:08Z</time>
      </trkpt>
      <trkpt lat="43.44833" lon="5.76231">
        <ele>851.18</ele>
        <time>2020-02-18T10:00:24Z</time>
      </trkpt>
      <trkpt lat="43.44828" lon="5.76227">
        <ele>852.48</ele>
        <time>2020-02-18T10:00:31Z</time>
      </trkpt>
      <trkpt lat="43.44818" lon="5.76224">
        <ele>853.3</ele>
        <time>2020-02-18T10:00:43Z</time>
      </trkpt>
      <trkpt lat="43.44812" lon="5.76219">
        <ele>853.49</ele>
        <time>2020-02-18T10:00:50Z</time>
      </trkpt>
      <trkpt lat="43.44805" lon="5.76213">
        <ele>853.66</ele>
        <time>2020-02-18T10:00:56Z</time>
      </trkpt>
      <trkpt lat="43.44803" lon="5.76212">
        <ele>853.65</ele>
        <time>2020-02-18T10:00:58Z</time>
      </trkpt>
      <trkpt lat="43.44793" lon="5.76204">
        <ele>854.36</ele>
        <time>2020-02-18T10:01:07Z</time>
      </trkpt>
      <trkpt lat="43.44783" lon="5.76192">
        <ele>854.95</ele>
        <time>2020-02-18T10:01:18Z</time>
      </trkpt>
      <trkpt lat="43.44769" lon="5.76173">
        <ele>856.12</ele>
        <time>2020-02-18T10:01:35Z</time>
      </trkpt>
      <trkpt lat="43.44762" lon="5.76166">
        <ele>856.84</ele>
        <time>2020-02-18T10:01:44Z</time>
      </trkpt>
      <trkpt lat="43.4475" lon="5.76153">
        <ele>857.85</ele>
        <time>2020-02-18T10:01:56Z</time>
      </trkpt>
      <trkpt lat="43.44738" lon="5.76138">
        <ele>861.09</ele>
        <time>2020-02-18T10:02:14Z</time>
      </trkpt>
      <trkpt lat="43.44725" lon="5.7613">
        <ele>864.15</ele>
        <time>2020-02-18T10:02:32Z</time>
      </trkpt>
      <trkpt lat="43.44716" lon="5.76122">
        <ele>867.22</ele>
        <time>2020-02-18T10:02:48Z</time>
      </trkpt>
      <trkpt lat="43.44706" lon="5.76119">
        <ele>870.24</ele>
        <time>2020-02-18T10:03:02Z</time>
      </trkpt>
      <trkpt lat="43.44698" lon="5.76119">
        <ele>871.57</ele>
        <time>2020-02-18T10:03:10Z</time>
      </trkpt>
      <trkpt lat="43.44683" lon="5.76119">
        <ele>874.09</ele>
        <time>2020-02-18T10:03:27Z</time>
      </trkpt>
      <trkpt lat="43.44674" lon="5.7612">
        <ele>877.17</ele>
        <time>2020-02-18T10:03:38Z</time>
      </trkpt>
      <trkpt lat="43.44664" lon="5.76118">
        <ele>880.37</ele>
        <time>2020-02-18T10:03:53Z</time>
      </trkpt>
      <trkpt lat="43.44655" lon="5.76116">
        <ele>883.63</ele>
        <time>2020-02-18T10:04:07Z</time>
      </trkpt>
      <trkpt lat="43.44642" lon="5.76112">
        <ele>886.75</ele>
        <time>2020-02-18T10:04:26Z</time>
      </trkpt>
      <trkpt lat="43.44635" lon="5.76112">
        <ele>889.92</ele>
        <time>2020-02-18T10:04:40Z</time>
      </trkpt>
      <trkpt lat="43.44626" lon="5.76107">
        <ele>892.6</ele>
        <time>2020-02-18T10:04:56Z</time>
      </trkpt>
      <trkpt lat="43.44625" lon="5.76108">
        <ele>893.32</ele>
        <time>2020-02-18T10:04:57Z</time>
      </trkpt>
      <trkpt lat="43.44621" lon="5.7611">
        <ele>895.75</ele>
        <time>2020-02-18T10:05:01Z</time>
      </trkpt>
      <trkpt lat="43.44611" lon="5.76114">
        <ele>897.29</ele>
        <time>2020-02-18T10:05:10Z</time>
      </trkpt>
      <trkpt lat="43.44593" lon="5.76118">
        <ele>896.99</ele>
        <time>2020-02-18T10:05:23Z</time>
      </trkpt>
      <trkpt lat="43.44581" lon="5.76121">
        <ele>894.85</ele>
        <time>2020-02-18T10:05:34Z</time>
      </trkpt>
      <trkpt lat="43.4456" lon="5.76123">
        <ele>892.64</ele>
        <time>2020-02-18T10:05:50Z</time>
      </trkpt>
      <trkpt lat="43.44539" lon="5.76123">
        <ele>893.06</ele>
        <time>2020-02-18T10:06:06Z</time>
      </trkpt>
      <trkpt lat="43.44525" lon="5.76118">
        <ele>895.45</ele>
        <time>2020-02-18T10:06:20Z</time>
      </trkpt>
      <trkpt lat="43.44514" lon="5.76111">
        <ele>897.91</ele>
        <time>2020-02-18T10:06:35Z</time>
      </trkpt>
      <trkpt lat="43.4451" lon="5.76104">
        <ele>899.17</ele>
        <time>2020-02-18T10:06:49Z</time>
      </trkpt>
      <trkpt lat="43.44508" lon="5.76102">
        <ele>898.75</ele>
        <time>2020-02-18T10:07:07Z</time>
      </trkpt>
      <trkpt lat="43.44506" lon="5.76103">
        <ele>898.75</ele>
        <time>2020-02-18T10:07:09Z</time>
      </trkpt>
      <trkpt lat="43.44499" lon="5.76104">
        <ele>898.2</ele>
        <time>2020-02-18T10:07:25Z</time>
      </trkpt>
      <trkpt lat="43.44496" lon="5.76105">
        <ele>898.41</ele>
        <time>2020-02-18T10:07:58Z</time>
      </trkpt>
      <trkpt lat="43.44488" lon="5.76111">
        <ele>897.07</ele>
        <time>2020-02-18T10:08:12Z</time>
      </trkpt>
      <trkpt lat="43.44487" lon="5.76119">
        <ele>897.48</ele>
        <time>2020-02-18T10:08:33Z</time>
      </trkpt>
      <trkpt lat="43.44484" lon="5.76119">
        <ele>896.8</ele>
        <time>2020-02-18T10:08:50Z</time>
      </trkpt>
      <trkpt lat="43.44479" lon="5.76112">
        <ele>896.15</ele>
        <time>2020-02-18T10:08:57Z</time>
      </trkpt>
      <trkpt lat="43.44476" lon="5.76109">
        <ele>895.45</ele>
        <time>2020-02-18T10:09:01Z</time>
      </trkpt>
      <trkpt lat="43.44469" lon="5.76105">
        <ele>892.85</ele>
        <time>2020-02-18T10:09:15Z</time>
      </trkpt>
      <trkpt lat="43.4447" lon="5.76096">
        <ele>892.49</ele>
        <time>2020-02-18T10:09:49Z</time>
      </trkpt>
      <trkpt lat="43.44459" lon="5.76102">
        <ele>892.23</ele>
        <time>2020-02-18T10:09:57Z</time>
      </trkpt>
      <trkpt lat="43.44453" lon="5.76103">
        <ele>889.47</ele>
        <time>2020-02-18T10:10:19Z</time>
      </trkpt>
      <trkpt lat="43.44446" lon="5.76101">
        <ele>888.12</ele>
        <time>2020-02-18T10:10:43Z</time>
      </trkpt>
      <trkpt lat="43.44444" lon="5.76101">
        <ele>887.53</ele>
        <time>2020-02-18T10:10:45Z</time>
      </trkpt>
      <trkpt lat="43.44433" lon="5.76106">
        <ele>883.77</ele>
        <time>2020-02-18T10:10:56Z</time>
      </trkpt>
      <trkpt lat="43.44431" lon="5.76109">
        <ele>880.6</ele>
        <time>2020-02-18T10:11:03Z</time>
      </trkpt>
      <trkpt lat="43.44424" lon="5.76112">
        <ele>878.7</ele>
        <time>2020-02-18T10:11:21Z</time>
      </trkpt>
      <trkpt lat="43.44417" lon="5.76123">
        <ele>875.2</ele>
        <time>2020-02-18T10:11:32Z</time>
      </trkpt>
      <trkpt lat="43.44409" lon="5.76134">
        <ele>872.14</ele>
        <time>2020-02-18T10:11:44Z</time>
      </trkpt>
      <trkpt lat="43.44401" lon="5.76143">
        <ele>869.12</ele>
        <time>2020-02-18T10:11:53Z</time>
      </trkpt>
      <trkpt lat="43.44397" lon="5.76141">
        <ele>867.8</ele>
        <time>2020-02-18T10:11:59Z</time>
      </trkpt>
      <trkpt lat="43.44395" lon="5.76139">
        <ele>867.25</ele>
        <time>2020-02-18T10:12:01Z</time>
      </trkpt>
      <trkpt lat="43.44393" lon="5.76138">
        <ele>866.46</ele>
        <time>2020-02-18T10:12:03Z</time>
      </trkpt>
      <trkpt lat="43.44382" lon="5.76137">
        <ele>863.05</ele>
        <time>2020-02-18T10:12:12Z</time>
      </trkpt>
      <trkpt lat="43.44376" lon="5.76135">
        <ele>860.38</ele>
        <time>2020-02-18T10:12:17Z</time>
      </trkpt>
      <trkpt lat="43.44372" lon="5.76128">
        <ele>857.74</ele>
        <time>2020-02-18T10:12:23Z</time>
      </trkpt>
      <trkpt lat="43.44368" lon="5.76124">
        <ele>856.44</ele>
        <time>2020-02-18T10:12:27Z</time>
      </trkpt>
      <trkpt lat="43.44365" lon="5.7612">
        <ele>852.87</ele>
        <time>2020-02-18T10:12:35Z</time>
      </trkpt>
      <trkpt lat="43.44357" lon="5.7611">
        <ele>849.83</ele>
        <time>2020-02-18T10:12:46Z</time>
      </trkpt>
      <trkpt lat="43.44352" lon="5.76102">
        <ele>846.38</ele>
        <time>2020-02-18T10:12:53Z</time>
      </trkpt>
      <trkpt lat="43.44347" lon="5.76094">
        <ele>843.24</ele>
        <time>2020-02-18T10:13:02Z</time>
      </trkpt>
      <trkpt lat="43.44345" lon="5.7609">
        <ele>841.97</ele>
        <time>2020-02-18T10:13:06Z</time>
      </trkpt>
      <trkpt lat="43.44338" lon="5.7608">
        <ele>838.1</ele>
        <time>2020-02-18T10:13:21Z</time>
      </trkpt>
      <trkpt lat="43.44335" lon="5.76076">
        <ele>836.58</ele>
        <time>2020-02-18T10:13:45Z</time>
      </trkpt>
      <trkpt lat="43.44333" lon="5.76061">
        <ele>833.19</ele>
        <time>2020-02-18T10:13:53Z</time>
      </trkpt>
      <trkpt lat="43.44326" lon="5.7605">
        <ele>832.42</ele>
        <time>2020-02-18T10:14:03Z</time>
      </trkpt>
      <trkpt lat="43.44325" lon="5.76049">
        <ele>832.09</ele>
        <time>2020-02-18T10:14:04Z</time>
      </trkpt>
      <trkpt lat="43.44315" lon="5.76039">
        <ele>828.5</ele>
        <time>2020-02-18T10:14:13Z</time>
      </trkpt>
      <trkpt lat="43.44307" lon="5.7603">
        <ele>825.31</ele>
        <time>2020-02-18T10:14:23Z</time>
      </trkpt>
      <trkpt lat="43.44303" lon="5.76026">
        <ele>823.17</ele>
        <time>2020-02-18T10:14:29Z</time>
      </trkpt>
      <trkpt lat="43.44294" lon="5.7602">
        <ele>820.74</ele>
        <time>2020-02-18T10:14:38Z</time>
      </trkpt>
      <trkpt lat="43.44287" lon="5.76014">
        <ele>817.29</ele>
        <time>2020-02-18T10:14:47Z</time>
      </trkpt>
      <trkpt lat="43.44283" lon="5.76009">
        <ele>814</ele>
        <time>2020-02-18T10:14:53Z</time>
      </trkpt>
      <trkpt lat="43.44277" lon="5.76002">
        <ele>811.86</ele>
        <time>2020-02-18T10:15:06Z</time>
      </trkpt>
      <trkpt lat="43.44275" lon="5.76">
        <ele>811.44</ele>
        <time>2020-02-18T10:15:08Z</time>
      </trkpt>
      <trkpt lat="43.44271" lon="5.75985">
        <ele>808.07</ele>
        <time>2020-02-18T10:15:17Z</time>
      </trkpt>
      <trkpt lat="43.44267" lon="5.75974">
        <ele>805.08</ele>
        <time>2020-02-18T10:15:25Z</time>
      </trkpt>
      <trkpt lat="43.44265" lon="5.75971">
        <ele>804.11</ele>
        <time>2020-02-18T10:15:28Z</time>
      </trkpt>
      <trkpt lat="43.44258" lon="5.75958">
        <ele>800.75</ele>
        <time>2020-02-18T10:15:37Z</time>
      </trkpt>
      <trkpt lat="43.44251" lon="5.75951">
        <ele>797.65</ele>
        <time>2020-02-18T10:15:44Z</time>
      </trkpt>
      <trkpt lat="43.44244" lon="5.75943">
        <ele>794.56</ele>
        <time>2020-02-18T10:15:52Z</time>
      </trkpt>
      <trkpt lat="43.44241" lon="5.7594">
        <ele>793.51</ele>
        <time>2020-02-18T10:15:55Z</time>
      </trkpt>
      <trkpt lat="43.44231" lon="5.75928">
        <ele>790.26</ele>
        <time>2020-02-18T10:16:06Z</time>
      </trkpt>
      <trkpt lat="43.44224" lon="5.75924">
        <ele>788.79</ele>
        <time>2020-02-18T10:16:30Z</time>
      </trkpt>
      <trkpt lat="43.44216" lon="5.7592">
        <ele>787.08</ele>
        <time>2020-02-18T10:16:57Z</time>
      </trkpt>
      <trkpt lat="43.44214" lon="5.7592">
        <ele>786.52</ele>
        <time>2020-02-18T10:16:59Z</time>
      </trkpt>
      <trkpt lat="43.44205" lon="5.75909">
        <ele>782.97</ele>
        <time>2020-02-18T10:17:08Z</time>
      </trkpt>
      <trkpt lat="43.44204" lon="5.75905">
        <ele>782.05</ele>
        <time>2020-02-18T10:17:10Z</time>
      </trkpt>
      <trkpt lat="43.44204" lon="5.75896">
        <ele>780.32</ele>
        <time>2020-02-18T10:17:15Z</time>
      </trkpt>
      <trkpt lat="43.44202" lon="5.75889">
        <ele>779.31</ele>
        <time>2020-02-18T10:17:20Z</time>
      </trkpt>
      <trkpt lat="43.44198" lon="5.75882">
        <ele>776.98</ele>
        <time>2020-02-18T10:17:26Z</time>
      </trkpt>
      <trkpt lat="43.44191" lon="5.75877">
        <ele>774.14</ele>
        <time>2020-02-18T10:17:33Z</time>
      </trkpt>
      <trkpt lat="43.44175" lon="5.75859">
        <ele>770.79</ele>
        <time>2020-02-18T10:17:49Z</time>
      </trkpt>
      <trkpt lat="43.44156" lon="5.75842">
        <ele>768.13</ele>
        <time>2020-02-18T10:18:04Z</time>
      </trkpt>
      <trkpt lat="43.44139" lon="5.7583">
        <ele>765.34</ele>
        <time>2020-02-18T10:18:19Z</time>
      </trkpt>
      <trkpt lat="43.44127" lon="5.75822">
        <ele>763.36</ele>
        <time>2020-02-18T10:18:33Z</time>
      </trkpt>
      <trkpt lat="43.4412" lon="5.7582">
        <ele>762.23</ele>
        <time>2020-02-18T10:18:57Z</time>
      </trkpt>
      <trkpt lat="43.4411" lon="5.75817">
        <ele>760.42</ele>
        <time>2020-02-18T10:19:18Z</time>
      </trkpt>
      <trkpt lat="43.44109" lon="5.75816">
        <ele>760.12</ele>
        <time>2020-02-18T10:19:19Z</time>
      </trkpt>
      <trkpt lat="43.44102" lon="5.75808">
        <ele>756.49</ele>
        <time>2020-02-18T10:19:29Z</time>
      </trkpt>
      <trkpt lat="43.44098" lon="5.75804">
        <ele>753.42</ele>
        <time>2020-02-18T10:19:36Z</time>
      </trkpt>
      <trkpt lat="43.44097" lon="5.75801">
        <ele>752.65</ele>
        <time>2020-02-18T10:19:38Z</time>
      </trkpt>
      <trkpt lat="43.44087" lon="5.75788">
        <ele>749.11</ele>
        <time>2020-02-18T10:19:50Z</time>
      </trkpt>
      <trkpt lat="43.44083" lon="5.75783">
        <ele>749.31</ele>
        <time>2020-02-18T10:19:56Z</time>
      </trkpt>
      <trkpt lat="43.44076" lon="5.75783">
        <ele>749</ele>
        <time>2020-02-18T10:20:01Z</time>
      </trkpt>
      <trkpt lat="43.44058" lon="5.75781">
        <ele>747.36</ele>
        <time>2020-02-18T10:20:13Z</time>
      </trkpt>
      <trkpt lat="43.44052" lon="5.75779">
        <ele>746.73</ele>
        <time>2020-02-18T10:20:17Z</time>
      </trkpt>
      <trkpt lat="43.44031" lon="5.75778">
        <ele>743.07</ele>
        <time>2020-02-18T10:20:30Z</time>
      </trkpt>
      <trkpt lat="43.44016" lon="5.75778">
        <ele>739.94</ele>
        <time>2020-02-18T10:20:40Z</time>
      </trkpt>
      <trkpt lat="43.43996" lon="5.75777">
        <ele>738.11</ele>
        <time>2020-02-18T10:20:56Z</time>
      </trkpt>
      <trkpt lat="43.43993" lon="5.75774">
        <ele>737.95</ele>
        <time>2020-02-18T10:20:59Z</time>
      </trkpt>
      <trkpt lat="43.43991" lon="5.75774">
        <ele>737.68</ele>
        <time>2020-02-18T10:21:01Z</time>
      </trkpt>
      <trkpt lat="43.43987" lon="5.75772">
        <ele>737.19</ele>
        <time>2020-02-18T10:21:04Z</time>
      </trkpt>
      <trkpt lat="43.43986" lon="5.7577">
        <ele>736.77</ele>
        <time>2020-02-18T10:21:06Z</time>
      </trkpt>
      <trkpt lat="43.43988" lon="5.75751">
        <ele>735.53</ele>
        <time>2020-02-18T10:21:18Z</time>
      </trkpt>
      <trkpt lat="43.43988" lon="5.75745">
        <ele>735.01</ele>
        <time>2020-02-18T10:21:21Z</time>
      </trkpt>
      <trkpt lat="43.43998" lon="5.75731">
        <ele>732.8</ele>
        <time>2020-02-18T10:21:33Z</time>
      </trkpt>
      <trkpt lat="43.44009" lon="5.75722">
        <ele>730.07</ele>
        <time>2020-02-18T10:21:42Z</time>
      </trkpt>
      <trkpt lat="43.44024" lon="5.75709">
        <ele>726.71</ele>
        <time>2020-02-18T10:21:55Z</time>
      </trkpt>
      <trkpt lat="43.44033" lon="5.757">
        <ele>724.36</ele>
        <time>2020-02-18T10:22:03Z</time>
      </trkpt>
      <trkpt lat="43.4404" lon="5.75695">
        <ele>722.92</ele>
        <time>2020-02-18T10:22:08Z</time>
      </trkpt>
      <trkpt lat="43.44049" lon="5.75689">
        <ele>720.9</ele>
        <time>2020-02-18T10:22:15Z</time>
      </trkpt>
      <trkpt lat="43.44052" lon="5.75688">
        <ele>720.58</ele>
        <time>2020-02-18T10:22:17Z</time>
      </trkpt>
      <trkpt lat="43.44058" lon="5.75684">
        <ele>719.4</ele>
        <time>2020-02-18T10:22:22Z</time>
      </trkpt>
      <trkpt lat="43.44066" lon="5.75679">
        <ele>718.26</ele>
        <time>2020-02-18T10:22:29Z</time>
      </trkpt>
      <trkpt lat="43.44079" lon="5.75671">
        <ele>715.39</ele>
        <time>2020-02-18T10:22:42Z</time>
      </trkpt>
      <trkpt lat="43.44091" lon="5.7566">
        <ele>712.32</ele>
        <time>2020-02-18T10:22:54Z</time>
      </trkpt>
      <trkpt lat="43.44109" lon="5.75659">
        <ele>709.29</ele>
        <time>2020-02-18T10:23:07Z</time>
      </trkpt>
      <trkpt lat="43.44127" lon="5.75666">
        <ele>707.17</ele>
        <time>2020-02-18T10:23:19Z</time>
      </trkpt>
      <trkpt lat="43.44133" lon="5.75668">
        <ele>706.81</ele>
        <time>2020-02-18T10:23:23Z</time>
      </trkpt>
      <trkpt lat="43.44151" lon="5.75677">
        <ele>704.01</ele>
        <time>2020-02-18T10:23:37Z</time>
      </trkpt>
      <trkpt lat="43.44168" lon="5.75682">
        <ele>701.96</ele>
        <time>2020-02-18T10:23:50Z</time>
      </trkpt>
      <trkpt lat="43.4417" lon="5.75681">
        <ele>701.9</ele>
        <time>2020-02-18T10:23:51Z</time>
      </trkpt>
      <trkpt lat="43.44175" lon="5.75676">
        <ele>701.67</ele>
        <time>2020-02-18T10:23:56Z</time>
      </trkpt>
      <trkpt lat="43.4419" lon="5.75666">
        <ele>701.62</ele>
        <time>2020-02-18T10:24:07Z</time>
      </trkpt>
      <trkpt lat="43.44193" lon="5.75664">
        <ele>701.46</ele>
        <time>2020-02-18T10:24:09Z</time>
      </trkpt>
      <trkpt lat="43.44201" lon="5.75657">
        <ele>700.79</ele>
        <time>2020-02-18T10:24:16Z</time>
      </trkpt>
      <trkpt lat="43.44226" lon="5.75648">
        <ele>699.84</ele>
        <time>2020-02-18T10:24:32Z</time>
      </trkpt>
      <trkpt lat="43.44242" lon="5.75662">
        <ele>697.45</ele>
        <time>2020-02-18T10:24:44Z</time>
      </trkpt>
      <trkpt lat="43.44252" lon="5.75683">
        <ele>694.22</ele>
        <time>2020-02-18T10:24:56Z</time>
      </trkpt>
      <trkpt lat="43.44264" lon="5.75699">
        <ele>691.33</ele>
        <time>2020-02-18T10:25:09Z</time>
      </trkpt>
      <trkpt lat="43.4427" lon="5.757">
        <ele>690.43</ele>
        <time>2020-02-18T10:25:14Z</time>
      </trkpt>
      <trkpt lat="43.44277" lon="5.75695">
        <ele>689.01</ele>
        <time>2020-02-18T10:25:21Z</time>
      </trkpt>
      <trkpt lat="43.44291" lon="5.75686">
        <ele>685.6</ele>
        <time>2020-02-18T10:25:33Z</time>
      </trkpt>
      <trkpt lat="43.44307" lon="5.7568">
        <ele>683.07</ele>
        <time>2020-02-18T10:25:46Z</time>
      </trkpt>
      <trkpt lat="43.44323" lon="5.75682">
        <ele>681.03</ele>
        <time>2020-02-18T10:25:57Z</time>
      </trkpt>
      <trkpt lat="43.44339" lon="5.7569">
        <ele>678.68</ele>
        <time>2020-02-18T10:26:10Z</time>
      </trkpt>
      <trkpt lat="43.44355" lon="5.75678">
        <ele>675.8</ele>
        <time>2020-02-18T10:26:24Z</time>
      </trkpt>
      <trkpt lat="43.44372" lon="5.75659">
        <ele>672.97</ele>
        <time>2020-02-18T10:26:39Z</time>
      </trkpt>
      <trkpt lat="43.44376" lon="5.75655">
        <ele>671.65</ele>
        <time>2020-02-18T10:26:44Z</time>
      </trkpt>
      <trkpt lat="43.44381" lon="5.75652">
        <ele>670.88</ele>
        <time>2020-02-18T10:26:48Z</time>
      </trkpt>
      <trkpt lat="43.44386" lon="5.75649">
        <ele>670.2</ele>
        <time>2020-02-18T10:26:52Z</time>
      </trkpt>
      <trkpt lat="43.444" lon="5.7565">
        <ele>667.19</ele>
        <time>2020-02-18T10:27:05Z</time>
      </trkpt>
      <trkpt lat="43.44402" lon="5.7565">
        <ele>666.76</ele>
        <time>2020-02-18T10:27:07Z</time>
      </trkpt>
      <trkpt lat="43.44412" lon="5.75653">
        <ele>665.27</ele>
        <time>2020-02-18T10:27:14Z</time>
      </trkpt>
      <trkpt lat="43.44415" lon="5.75653">
        <ele>664.89</ele>
        <time>2020-02-18T10:27:17Z</time>
      </trkpt>
      <trkpt lat="43.4442" lon="5.75657">
        <ele>664.09</ele>
        <time>2020-02-18T10:27:21Z</time>
      </trkpt>
      <trkpt lat="43.4443" lon="5.75667">
        <ele>660.77</ele>
        <time>2020-02-18T10:27:33Z</time>
      </trkpt>
      <trkpt lat="43.44441" lon="5.75674">
        <ele>657.76</ele>
        <time>2020-02-18T10:27:45Z</time>
      </trkpt>
      <trkpt lat="43.44445" lon="5.75673">
        <ele>657.05</ele>
        <time>2020-02-18T10:27:49Z</time>
      </trkpt>
      <trkpt lat="43.44467" lon="5.75673">
        <ele>655.21</ele>
        <time>2020-02-18T10:28:03Z</time>
      </trkpt>
      <trkpt lat="43.44485" lon="5.75673">
        <ele>652.16</ele>
        <time>2020-02-18T10:28:21Z</time>
      </trkpt>
      <trkpt lat="43.44487" lon="5.75673">
        <ele>651.49</ele>
        <time>2020-02-18T10:28:23Z</time>
      </trkpt>
      <trkpt lat="43.44502" lon="5.75673">
        <ele>649.46</ele>
        <time>2020-02-18T10:28:31Z</time>
      </trkpt>
      <trkpt lat="43.44517" lon="5.75671">
        <ele>647.84</ele>
        <time>2020-02-18T10:28:40Z</time>
      </trkpt>
      <trkpt lat="43.44525" lon="5.75674">
        <ele>646.86</ele>
        <time>2020-02-18T10:28:46Z</time>
      </trkpt>
      <trkpt lat="43.44538" lon="5.75674">
        <ele>645.27</ele>
        <time>2020-02-18T10:28:55Z</time>
      </trkpt>
      <trkpt lat="43.4456" lon="5.75665">
        <ele>642.59</ele>
        <time>2020-02-18T10:29:11Z</time>
      </trkpt>
      <trkpt lat="43.44563" lon="5.75665">
        <ele>641.96</ele>
        <time>2020-02-18T10:29:13Z</time>
      </trkpt>
      <trkpt lat="43.44587" lon="5.75671">
        <ele>640.36</ele>
        <time>2020-02-18T10:29:28Z</time>
      </trkpt>
      <trkpt lat="43.4459" lon="5.75672">
        <ele>640.22</ele>
        <time>2020-02-18T10:29:31Z</time>
      </trkpt>
      <trkpt lat="43.44604" lon="5.75664">
        <ele>639.99</ele>
        <time>2020-02-18T10:29:44Z</time>
      </trkpt>
      <trkpt lat="43.44607" lon="5.75661">
        <ele>639.88</ele>
        <time>2020-02-18T10:29:47Z</time>
      </trkpt>
      <trkpt lat="43.44611" lon="5.75652">
        <ele>639.88</ele>
        <time>2020-02-18T10:29:53Z</time>
      </trkpt>
      <trkpt lat="43.44628" lon="5.75634">
        <ele>640.02</ele>
        <time>2020-02-18T10:30:09Z</time>
      </trkpt>
      <trkpt lat="43.44647" lon="5.75631">
        <ele>639.61</ele>
        <time>2020-02-18T10:30:22Z</time>
      </trkpt>
      <trkpt lat="43.44664" lon="5.75617">
        <ele>638.96</ele>
        <time>2020-02-18T10:30:37Z</time>
      </trkpt>
      <trkpt lat="43.44667" lon="5.75614">
        <ele>639.27</ele>
        <time>2020-02-18T10:30:40Z</time>
      </trkpt>
      <trkpt lat="43.44686" lon="5.75602">
        <ele>640.54</ele>
        <time>2020-02-18T10:30:57Z</time>
      </trkpt>
      <trkpt lat="43.44703" lon="5.75594">
        <ele>639.54</ele>
        <time>2020-02-18T10:31:11Z</time>
      </trkpt>
      <trkpt lat="43.44711" lon="5.75592">
        <ele>638.32</ele>
        <time>2020-02-18T10:31:26Z</time>
      </trkpt>
      <trkpt lat="43.44712" lon="5.7559">
        <ele>637.37</ele>
        <time>2020-02-18T10:31:52Z</time>
      </trkpt>
      <trkpt lat="43.44713" lon="5.75593">
        <ele>638.25</ele>
        <time>2020-02-18T10:32:14Z</time>
      </trkpt>
      <trkpt lat="43.44716" lon="5.75592">
        <ele>638.17</ele>
        <time>2020-02-18T10:32:23Z</time>
      </trkpt>
      <trkpt lat="43.44725" lon="5.75583">
        <ele>636.37</ele>
        <time>2020-02-18T10:32:45Z</time>
      </trkpt>
      <trkpt lat="43.44726" lon="5.75581">
        <ele>636.07</ele>
        <time>2020-02-18T10:32:46Z</time>
      </trkpt>
      <trkpt lat="43.44732" lon="5.75565">
        <ele>632.67</ele>
        <time>2020-02-18T10:32:59Z</time>
      </trkpt>
      <trkpt lat="43.44731" lon="5.7555">
        <ele>629.26</ele>
        <time>2020-02-18T10:33:14Z</time>
      </trkpt>
      <trkpt lat="43.44721" lon="5.75542">
        <ele>626.25</ele>
        <time>2020-02-18T10:33:28Z</time>
      </trkpt>
      <trkpt lat="43.44702" lon="5.75528">
        <ele>623.84</ele>
        <time>2020-02-18T10:33:44Z</time>
      </trkpt>
      <trkpt lat="43.44684" lon="5.75528">
        <ele>620.75</ele>
        <time>2020-02-18T10:33:59Z</time>
      </trkpt>
      <trkpt lat="43.44677" lon="5.7553">
        <ele>619.44</ele>
        <time>2020-02-18T10:34:05Z</time>
      </trkpt>
      <trkpt lat="43.44667" lon="5.7553">
        <ele>617.08</ele>
        <time>2020-02-18T10:34:12Z</time>
      </trkpt>
      <trkpt lat="43.44641" lon="5.75537">
        <ele>614.04</ele>
        <time>2020-02-18T10:34:28Z</time>
      </trkpt>
      <trkpt lat="43.44637" lon="5.75537">
        <ele>613.81</ele>
        <time>2020-02-18T10:34:30Z</time>
      </trkpt>
      <trkpt lat="43.44629" lon="5.75538">
        <ele>613.21</ele>
        <time>2020-02-18T10:34:34Z</time>
      </trkpt>
      <trkpt lat="43.44619" lon="5.75536">
        <ele>609.66</ele>
        <time>2020-02-18T10:34:43Z</time>
      </trkpt>
      <trkpt lat="43.44606" lon="5.75535">
        <ele>606.43</ele>
        <time>2020-02-18T10:34:53Z</time>
      </trkpt>
      <trkpt lat="43.446" lon="5.75534">
        <ele>605.47</ele>
        <time>2020-02-18T10:34:57Z</time>
      </trkpt>
      <trkpt lat="43.44578" lon="5.75527">
        <ele>602.24</ele>
        <time>2020-02-18T10:35:10Z</time>
      </trkpt>
      <trkpt lat="43.44563" lon="5.7553">
        <ele>599.5</ele>
        <time>2020-02-18T10:35:28Z</time>
      </trkpt>
      <trkpt lat="43.44549" lon="5.7553">
        <ele>596.35</ele>
        <time>2020-02-18T10:35:41Z</time>
      </trkpt>
      <trkpt lat="43.44533" lon="5.75515">
        <ele>594.6</ele>
        <time>2020-02-18T10:36:00Z</time>
      </trkpt>
      <trkpt lat="43.44517" lon="5.75498">
        <ele>593.12</ele>
        <time>2020-02-18T10:36:16Z</time>
      </trkpt>
      <trkpt lat="43.445" lon="5.75467">
        <ele>592.54</ele>
        <time>2020-02-18T10:36:35Z</time>
      </trkpt>
      <trkpt lat="43.44498" lon="5.75465">
        <ele>592.6</ele>
        <time>2020-02-18T10:36:37Z</time>
      </trkpt>
      <trkpt lat="43.44484" lon="5.75438">
        <ele>591.05</ele>
        <time>2020-02-18T10:36:58Z</time>
      </trkpt>
      <trkpt lat="43.4447" lon="5.75419">
        <ele>588.29</ele>
        <time>2020-02-18T10:37:12Z</time>
      </trkpt>
      <trkpt lat="43.44454" lon="5.75415">
        <ele>585.26</ele>
        <time>2020-02-18T10:37:25Z</time>
      </trkpt>
      <trkpt lat="43.44436" lon="5.75417">
        <ele>582.07</ele>
        <time>2020-02-18T10:37:38Z</time>
      </trkpt>
      <trkpt lat="43.44417" lon="5.75411">
        <ele>578.91</ele>
        <time>2020-02-18T10:37:52Z</time>
      </trkpt>
      <trkpt lat="43.44398" lon="5.75387">
        <ele>575.98</ele>
        <time>2020-02-18T10:38:12Z</time>
      </trkpt>
      <trkpt lat="43.4439" lon="5.75366">
        <ele>572.96</ele>
        <time>2020-02-18T10:38:25Z</time>
      </trkpt>
      <trkpt lat="43.44382" lon="5.75354">
        <ele>569.89</ele>
        <time>2020-02-18T10:38:36Z</time>
      </trkpt>
      <trkpt lat="43.44374" lon="5.75342">
        <ele>566.52</ele>
        <time>2020-02-18T10:38:44Z</time>
      </trkpt>
      <trkpt lat="43.44372" lon="5.75341">
        <ele>566.05</ele>
        <time>2020-02-18T10:38:45Z</time>
      </trkpt>
      <trkpt lat="43.44365" lon="5.75336">
        <ele>563.96</ele>
        <time>2020-02-18T10:38:50Z</time>
      </trkpt>
      <trkpt lat="43.44353" lon="5.75337">
        <ele>560.43</ele>
        <time>2020-02-18T10:38:59Z</time>
      </trkpt>
      <trkpt lat="43.44333" lon="5.75332">
        <ele>556.85</ele>
        <time>2020-02-18T10:39:09Z</time>
      </trkpt>
      <trkpt lat="43.44329" lon="5.75331">
        <ele>556.25</ele>
        <time>2020-02-18T10:39:11Z</time>
      </trkpt>
      <trkpt lat="43.44313" lon="5.75328">
        <ele>552.85</ele>
        <time>2020-02-18T10:39:23Z</time>
      </trkpt>
      <trkpt lat="43.44294" lon="5.75323">
        <ele>550.12</ele>
        <time>2020-02-18T10:39:37Z</time>
      </trkpt>
      <trkpt lat="43.44291" lon="5.75306">
        <ele>548.73</ele>
        <time>2020-02-18T10:39:43Z</time>
      </trkpt>
      <trkpt lat="43.44292" lon="5.75297">
        <ele>548.64</ele>
        <time>2020-02-18T10:39:52Z</time>
      </trkpt>
      <trkpt lat="43.44296" lon="5.75292">
        <ele>547.25</ele>
        <time>2020-02-18T10:39:56Z</time>
      </trkpt>
      <trkpt lat="43.44305" lon="5.75274">
        <ele>543.85</ele>
        <time>2020-02-18T10:40:08Z</time>
      </trkpt>
      <trkpt lat="43.44307" lon="5.75263">
        <ele>542.48</ele>
        <time>2020-02-18T10:40:14Z</time>
      </trkpt>
      <trkpt lat="43.44318" lon="5.75251">
        <ele>538.93</ele>
        <time>2020-02-18T10:40:25Z</time>
      </trkpt>
      <trkpt lat="43.44322" lon="5.75246">
        <ele>537.34</ele>
        <time>2020-02-18T10:40:30Z</time>
      </trkpt>
      <trkpt lat="43.44327" lon="5.75233">
        <ele>535.41</ele>
        <time>2020-02-18T10:40:39Z</time>
      </trkpt>
      <trkpt lat="43.44336" lon="5.75219">
        <ele>532.86</ele>
        <time>2020-02-18T10:40:53Z</time>
      </trkpt>
      <trkpt lat="43.44344" lon="5.75213">
        <ele>529.69</ele>
        <time>2020-02-18T10:41:08Z</time>
      </trkpt>
      <trkpt lat="43.44345" lon="5.75214">
        <ele>529.32</ele>
        <time>2020-02-18T10:41:11Z</time>
      </trkpt>
      <trkpt lat="43.44357" lon="5.75207">
        <ele>526.64</ele>
        <time>2020-02-18T10:41:27Z</time>
      </trkpt>
      <trkpt lat="43.44377" lon="5.75197">
        <ele>523.26</ele>
        <time>2020-02-18T10:41:42Z</time>
      </trkpt>
      <trkpt lat="43.44384" lon="5.75192">
        <ele>521.57</ele>
        <time>2020-02-18T10:41:49Z</time>
      </trkpt>
      <trkpt lat="43.44396" lon="5.75187">
        <ele>519.86</ele>
        <time>2020-02-18T10:41:55Z</time>
      </trkpt>
      <trkpt lat="43.44404" lon="5.75174">
        <ele>516.45</ele>
        <time>2020-02-18T10:42:05Z</time>
      </trkpt>
      <trkpt lat="43.4441" lon="5.75157">
        <ele>513.41</ele>
        <time>2020-02-18T10:42:19Z</time>
      </trkpt>
      <trkpt lat="43.44414" lon="5.75134">
        <ele>510.51</ele>
        <time>2020-02-18T10:42:37Z</time>
      </trkpt>
      <trkpt lat="43.44416" lon="5.75106">
        <ele>508.31</ele>
        <time>2020-02-18T10:42:57Z</time>
      </trkpt>
      <trkpt lat="43.44415" lon="5.75102">
        <ele>507.88</ele>
        <time>2020-02-18T10:42:59Z</time>
      </trkpt>
      <trkpt lat="43.44409" lon="5.75075">
        <ele>504.72</ele>
        <time>2020-02-18T10:43:19Z</time>
      </trkpt>
      <trkpt lat="43.44408" lon="5.75049">
        <ele>502.15</ele>
        <time>2020-02-18T10:43:37Z</time>
      </trkpt>
      <trkpt lat="43.44407" lon="5.75028">
        <ele>498.99</ele>
        <time>2020-02-18T10:43:52Z</time>
      </trkpt>
      <trkpt lat="43.44407" lon="5.75001">
        <ele>495.91</ele>
        <time>2020-02-18T10:44:09Z</time>
      </trkpt>
      <trkpt lat="43.44405" lon="5.74981">
        <ele>493.78</ele>
        <time>2020-02-18T10:44:23Z</time>
      </trkpt>
      <trkpt lat="43.44407" lon="5.74959">
        <ele>490.43</ele>
        <time>2020-02-18T10:44:37Z</time>
      </trkpt>
      <trkpt lat="43.44407" lon="5.74957">
        <ele>490.25</ele>
        <time>2020-02-18T10:44:38Z</time>
      </trkpt>
      <trkpt lat="43.44416" lon="5.74936">
        <ele>487.84</ele>
        <time>2020-02-18T10:44:51Z</time>
      </trkpt>
      <trkpt lat="43.44426" lon="5.74912">
        <ele>484.47</ele>
        <time>2020-02-18T10:45:05Z</time>
      </trkpt>
      <trkpt lat="43.44432" lon="5.74891">
        <ele>482.07</ele>
        <time>2020-02-18T10:45:20Z</time>
      </trkpt>
      <trkpt lat="43.44437" lon="5.74874">
        <ele>478.83</ele>
        <time>2020-02-18T10:45:31Z</time>
      </trkpt>
      <trkpt lat="43.44438" lon="5.7486">
        <ele>475.82</ele>
        <time>2020-02-18T10:45:41Z</time>
      </trkpt>
      <trkpt lat="43.44441" lon="5.74843">
        <ele>473.04</ele>
        <time>2020-02-18T10:45:53Z</time>
      </trkpt>
      <trkpt lat="43.44446" lon="5.74828">
        <ele>470.83</ele>
        <time>2020-02-18T10:46:06Z</time>
      </trkpt>
      <trkpt lat="43.44447" lon="5.74822">
        <ele>469.84</ele>
        <time>2020-02-18T10:46:12Z</time>
      </trkpt>
      <trkpt lat="43.4445" lon="5.74815">
        <ele>468.82</ele>
        <time>2020-02-18T10:46:18Z</time>
      </trkpt>
      <trkpt lat="43.44452" lon="5.74809">
        <ele>468.47</ele>
        <time>2020-02-18T10:46:21Z</time>
      </trkpt>
      <trkpt lat="43.44457" lon="5.74795">
        <ele>465.99</ele>
        <time>2020-02-18T10:46:36Z</time>
      </trkpt>
      <trkpt lat="43.4446" lon="5.74781">
        <ele>463.58</ele>
        <time>2020-02-18T10:46:50Z</time>
      </trkpt>
      <trkpt lat="43.44464" lon="5.74772">
        <ele>462.08</ele>
        <time>2020-02-18T10:47:00Z</time>
      </trkpt>
      <trkpt lat="43.4447" lon="5.7476">
        <ele>458.71</ele>
        <time>2020-02-18T10:47:19Z</time>
      </trkpt>
      <trkpt lat="43.4447" lon="5.7476">
        <ele>458.55</ele>
        <time>2020-02-18T10:47:20Z</time>
      </trkpt>
      <trkpt lat="43.44469" lon="5.74752">
        <ele>458.12</ele>
        <time>2020-02-18T10:47:25Z</time>
      </trkpt>
      <trkpt lat="43.44481" lon="5.74743">
        <ele>456.46</ele>
        <time>2020-02-18T10:47:42Z</time>
      </trkpt>
      <trkpt lat="43.44493" lon="5.74729">
        <ele>453.38</ele>
        <time>2020-02-18T10:47:57Z</time>
      </trkpt>
      <trkpt lat="43.44506" lon="5.74719">
        <ele>451.81</ele>
        <time>2020-02-18T10:48:11Z</time>
      </trkpt>
      <trkpt lat="43.44522" lon="5.74703">
        <ele>448.75</ele>
        <time>2020-02-18T10:48:29Z</time>
      </trkpt>
      <trkpt lat="43.44523" lon="5.747">
        <ele>448.25</ele>
        <time>2020-02-18T10:48:32Z</time>
      </trkpt>
      <trkpt lat="43.44537" lon="5.74684">
        <ele>445.07</ele>
        <time>2020-02-18T10:48:50Z</time>
      </trkpt>
      <trkpt lat="43.44539" lon="5.74682">
        <ele>444.63</ele>
        <time>2020-02-18T10:48:52Z</time>
      </trkpt>
      <trkpt lat="43.44549" lon="5.74666">
        <ele>441.9</ele>
        <time>2020-02-18T10:49:12Z</time>
      </trkpt>
      <trkpt lat="43.4456" lon="5.74654">
        <ele>441.46</ele>
        <time>2020-02-18T10:49:32Z</time>
      </trkpt>
      <trkpt lat="43.4456" lon="5.74651">
        <ele>440.29</ele>
        <time>2020-02-18T10:49:55Z</time>
      </trkpt>
      <trkpt lat="43.44562" lon="5.74648">
        <ele>440.06</ele>
        <time>2020-02-18T10:50:23Z</time>
      </trkpt>
      <trkpt lat="43.4456" lon="5.74643">
        <ele>440.04</ele>
        <time>2020-02-18T10:50:49Z</time>
      </trkpt>
      <trkpt lat="43.44574" lon="5.74635">
        <ele>438.17</ele>
        <time>2020-02-18T10:51:08Z</time>
      </trkpt>
      <trkpt lat="43.44578" lon="5.7463">
        <ele>437.49</ele>
        <time>2020-02-18T10:51:20Z</time>
      </trkpt>
      <trkpt lat="43.44583" lon="5.74625">
        <ele>437.16</ele>
        <time>2020-02-18T10:51:29Z</time>
      </trkpt>
      <trkpt lat="43.44601" lon="5.7461">
        <ele>434.44</ele>
        <time>2020-02-18T10:51:48Z</time>
      </trkpt>
      <trkpt lat="43.44612" lon="5.74592">
        <ele>431.39</ele>
        <time>2020-02-18T10:52:04Z</time>
      </trkpt>
      <trkpt lat="43.44621" lon="5.74572">
        <ele>428.26</ele>
        <time>2020-02-18T10:52:21Z</time>
      </trkpt>
      <trkpt lat="43.44629" lon="5.74559">
        <ele>427.03</ele>
        <time>2020-02-18T10:52:35Z</time>
      </trkpt>
      <trkpt lat="43.44646" lon="5.74554">
        <ele>428.53</ele>
        <time>2020-02-18T10:52:52Z</time>
      </trkpt>
      <trkpt lat="43.44662" lon="5.74545">
        <ele>427.22</ele>
        <time>2020-02-18T10:53:09Z</time>
      </trkpt>
      <trkpt lat="43.4467" lon="5.74526">
        <ele>425.49</ele>
        <time>2020-02-18T10:53:27Z</time>
      </trkpt>
      <trkpt lat="43.4468" lon="5.74518">
        <ele>425.06</ele>
        <time>2020-02-18T10:53:42Z</time>
      </trkpt>
      <trkpt lat="43.44682" lon="5.74517">
        <ele>424.57</ele>
        <time>2020-02-18T10:53:45Z</time>
      </trkpt>
      <trkpt lat="43.44698" lon="5.74505">
        <ele>421.85</ele>
        <time>2020-02-18T10:54:04Z</time>
      </trkpt>
      <trkpt lat="43.44702" lon="5.74507">
        <ele>421.49</ele>
        <time>2020-02-18T10:54:08Z</time>
      </trkpt>
      <trkpt lat="43.44718" lon="5.74499">
        <ele>420.54</ele>
        <time>2020-02-18T10:54:21Z</time>
      </trkpt>
      <trkpt lat="43.44729" lon="5.74492">
        <ele>420.2</ele>
        <time>2020-02-18T10:54:36Z</time>
      </trkpt>
      <trkpt lat="43.44732" lon="5.74489">
        <ele>419.73</ele>
        <time>2020-02-18T10:54:40Z</time>
      </trkpt>
      <trkpt lat="43.44737" lon="5.74481">
        <ele>418.82</ele>
        <time>2020-02-18T10:54:47Z</time>
      </trkpt>
      <trkpt lat="43.44739" lon="5.74459">
        <ele>417.06</ele>
        <time>2020-02-18T10:55:05Z</time>
      </trkpt>
      <trkpt lat="43.4474" lon="5.74456">
        <ele>416.52</ele>
        <time>2020-02-18T10:55:07Z</time>
      </trkpt>
      <trkpt lat="43.44747" lon="5.74427">
        <ele>414.01</ele>
        <time>2020-02-18T10:55:26Z</time>
      </trkpt>
      <trkpt lat="43.4476" lon="5.74399">
        <ele>411.01</ele>
        <time>2020-02-18T10:55:45Z</time>
      </trkpt>
      <trkpt lat="43.44768" lon="5.74373">
        <ele>407.88</ele>
        <time>2020-02-18T10:56:03Z</time>
      </trkpt>
      <trkpt lat="43.44774" lon="5.74345">
        <ele>404.75</ele>
        <time>2020-02-18T10:56:22Z</time>
      </trkpt>
      <trkpt lat="43.44784" lon="5.74311">
        <ele>402.61</ele>
        <time>2020-02-18T10:56:42Z</time>
      </trkpt>
      <trkpt lat="43.44793" lon="5.74279">
        <ele>400.71</ele>
        <time>2020-02-18T10:56:59Z</time>
      </trkpt>
      <trkpt lat="43.44806" lon="5.74263">
        <ele>399.65</ele>
        <time>2020-02-18T10:57:13Z</time>
      </trkpt>
      <trkpt lat="43.44812" lon="5.74248">
        <ele>399.01</ele>
        <time>2020-02-18T10:57:22Z</time>
      </trkpt>
      <trkpt lat="43.44813" lon="5.74244">
        <ele>398.84</ele>
        <time>2020-02-18T10:57:25Z</time>
      </trkpt>
      <trkpt lat="43.44814" lon="5.74241">
        <ele>398.75</ele>
        <time>2020-02-18T10:57:27Z</time>
      </trkpt>
      <trkpt lat="43.44819" lon="5.74217">
        <ele>397.27</ele>
        <time>2020-02-18T10:57:42Z</time>
      </trkpt>
      <trkpt lat="43.44819" lon="5.74195">
        <ele>395.84</ele>
        <time>2020-02-18T10:57:57Z</time>
      </trkpt>
      <trkpt lat="43.44816" lon="5.74186">
        <ele>395.82</ele>
        <time>2020-02-18T10:58:17Z</time>
      </trkpt>
      <trkpt lat="43.44814" lon="5.74186">
        <ele>395.98</ele>
        <time>2020-02-18T10:58:23Z</time>
      </trkpt>
      <trkpt lat="43.44835" lon="5.74193">
        <ele>395.98</ele>
        <time>2020-02-18T10:58:44Z</time>
      </trkpt>
      <trkpt lat="43.44845" lon="5.74188">
        <ele>394.75</ele>
        <time>2020-02-18T10:58:56Z</time>
      </trkpt>
      <trkpt lat="43.44864" lon="5.74177">
        <ele>392.12</ele>
        <time>2020-02-18T10:59:16Z</time>
      </trkpt>
      <trkpt lat="43.44884" lon="5.74172">
        <ele>389.85</ele>
        <time>2020-02-18T10:59:35Z</time>
      </trkpt>
      <trkpt lat="43.44893" lon="5.74167">
        <ele>388.39</ele>
        <time>2020-02-18T10:59:43Z</time>
      </trkpt>
      <trkpt lat="43.44909" lon="5.74158">
        <ele>385.44</ele>
        <time>2020-02-18T10:59:57Z</time>
      </trkpt>
      <trkpt lat="43.44928" lon="5.74149">
        <ele>382.24</ele>
        <time>2020-02-18T11:00:14Z</time>
      </trkpt>
      <trkpt lat="43.44944" lon="5.74138">
        <ele>379.46</ele>
        <time>2020-02-18T11:00:32Z</time>
      </trkpt>
      <trkpt lat="43.44957" lon="5.74133">
        <ele>376.98</ele>
        <time>2020-02-18T11:00:48Z</time>
      </trkpt>
      <trkpt lat="43.44964" lon="5.74134">
        <ele>376.27</ele>
        <time>2020-02-18T11:00:55Z</time>
      </trkpt>
      <trkpt lat="43.44972" lon="5.74129">
        <ele>375.5</ele>
        <time>2020-02-18T11:01:03Z</time>
      </trkpt>
      <trkpt lat="43.4499" lon="5.74121">
        <ele>373.05</ele>
        <time>2020-02-18T11:01:23Z</time>
      </trkpt>
      <trkpt lat="43.44995" lon="5.74116">
        <ele>372.06</ele>
        <time>2020-02-18T11:01:44Z</time>
      </trkpt>
      <trkpt lat="43.45007" lon="5.74111">
        <ele>371.51</ele>
        <time>2020-02-18T11:02:09Z</time>
      </trkpt>
      <trkpt lat="43.45023" lon="5.74109">
        <ele>369.96</ele>
        <time>2020-02-18T11:02:28Z</time>
      </trkpt>
      <trkpt lat="43.4503" lon="5.74115">
        <ele>369.34</ele>
        <time>2020-02-18T11:02:37Z</time>
      </trkpt>
      <trkpt lat="43.45043" lon="5.74124">
        <ele>368.19</ele>
        <time>2020-02-18T11:02:46Z</time>
      </trkpt>
      <trkpt lat="43.45059" lon="5.74123">
        <ele>366.26</ele>
        <time>2020-02-18T11:02:59Z</time>
      </trkpt>
      <trkpt lat="43.45076" lon="5.74121">
        <ele>363.94</ele>
        <time>2020-02-18T11:03:16Z</time>
      </trkpt>
      <trkpt lat="43.45079" lon="5.74123">
        <ele>363.74</ele>
        <time>2020-02-18T11:03:18Z</time>
      </trkpt>
      <trkpt lat="43.45103" lon="5.74139">
        <ele>361.97</ele>
        <time>2020-02-18T11:03:38Z</time>
      </trkpt>
      <trkpt lat="43.45124" lon="5.74161">
        <ele>359.51</ele>
        <time>2020-02-18T11:04:00Z</time>
      </trkpt>
      <trkpt lat="43.45137" lon="5.74172">
        <ele>359.03</ele>
        <time>2020-02-18T11:04:16Z</time>
      </trkpt>
      <trkpt lat="43.45144" lon="5.74173">
        <ele>358.96</ele>
        <time>2020-02-18T11:04:20Z</time>
      </trkpt>
      <trkpt lat="43.45165" lon="5.74183">
        <ele>358.32</ele>
        <time>2020-02-18T11:04:33Z</time>
      </trkpt>
      <trkpt lat="43.45181" lon="5.7419">
        <ele>357.96</ele>
        <time>2020-02-18T11:04:46Z</time>
      </trkpt>
      <trkpt lat="43.45188" lon="5.74194">
        <ele>357.8</ele>
        <time>2020-02-18T11:04:50Z</time>
      </trkpt>
      <trkpt lat="43.45195" lon="5.742">
        <ele>357.46</ele>
        <time>2020-02-18T11:04:56Z</time>
      </trkpt>
      <trkpt lat="43.45216" lon="5.74211">
        <ele>357.2</ele>
        <time>2020-02-18T11:05:11Z</time>
      </trkpt>
      <trkpt lat="43.45232" lon="5.74204">
        <ele>356.72</ele>
        <time>2020-02-18T11:05:28Z</time>
      </trkpt>
      <trkpt lat="43.45236" lon="5.74204">
        <ele>356.71</ele>
        <time>2020-02-18T11:05:40Z</time>
      </trkpt>
      <trkpt lat="43.45239" lon="5.74208">
        <ele>356.74</ele>
        <time>2020-02-18T11:05:43Z</time>
      </trkpt>
      <trkpt lat="43.45243" lon="5.7423">
        <ele>357.14</ele>
        <time>2020-02-18T11:05:56Z</time>
      </trkpt>
      <trkpt lat="43.45243" lon="5.74246">
        <ele>357.3</ele>
        <time>2020-02-18T11:06:05Z</time>
      </trkpt>
      <trkpt lat="43.45245" lon="5.74259">
        <ele>357.7</ele>
        <time>2020-02-18T11:06:13Z</time>
      </trkpt>
      <trkpt lat="43.45248" lon="5.74268">
        <ele>357.74</ele>
        <time>2020-02-18T11:06:19Z</time>
      </trkpt>
      <trkpt lat="43.45249" lon="5.74295">
        <ele>357.61</ele>
        <time>2020-02-18T11:06:33Z</time>
      </trkpt>
      <trkpt lat="43.45251" lon="5.7432">
        <ele>357.73</ele>
        <time>2020-02-18T11:06:46Z</time>
      </trkpt>
      <trkpt lat="43.45252" lon="5.74343">
        <ele>357.68</ele>
        <time>2020-02-18T11:06:56Z</time>
      </trkpt>
      <trkpt lat="43.45255" lon="5.74374">
        <ele>358</ele>
        <time>2020-02-18T11:07:14Z</time>
      </trkpt>
      <trkpt lat="43.45258" lon="5.74399">
        <ele>358.4</ele>
        <time>2020-02-18T11:07:27Z</time>
      </trkpt>
      <trkpt lat="43.45268" lon="5.74422">
        <ele>359.77</ele>
        <time>2020-02-18T11:07:40Z</time>
      </trkpt>
      <trkpt lat="43.4527" lon="5.74429">
        <ele>360.1</ele>
        <time>2020-02-18T11:07:43Z</time>
      </trkpt>
      <trkpt lat="43.45282" lon="5.74455">
        <ele>360.98</ele>
        <time>2020-02-18T11:07:57Z</time>
      </trkpt>
      <trkpt lat="43.45287" lon="5.74461">
        <ele>361.04</ele>
        <time>2020-02-18T11:08:01Z</time>
      </trkpt>
      <trkpt lat="43.45304" lon="5.74474">
        <ele>361.11</ele>
        <time>2020-02-18T11:08:11Z</time>
      </trkpt>
      <trkpt lat="43.45317" lon="5.74485">
        <ele>361.11</ele>
        <time>2020-02-18T11:08:22Z</time>
      </trkpt>
      <trkpt lat="43.4532" lon="5.74487">
        <ele>360.98</ele>
        <time>2020-02-18T11:08:24Z</time>
      </trkpt>
      <trkpt lat="43.45329" lon="5.74496">
        <ele>360.84</ele>
        <time>2020-02-18T11:08:30Z</time>
      </trkpt>
      <trkpt lat="43.45338" lon="5.74511">
        <ele>360.56</ele>
        <time>2020-02-18T11:08:39Z</time>
      </trkpt>
      <trkpt lat="43.45347" lon="5.74529">
        <ele>360.09</ele>
        <time>2020-02-18T11:08:52Z</time>
      </trkpt>
      <trkpt lat="43.45356" lon="5.74548">
        <ele>359.8</ele>
        <time>2020-02-18T11:09:04Z</time>
      </trkpt>
      <trkpt lat="43.4536" lon="5.74555">
        <ele>359.8</ele>
        <time>2020-02-18T11:09:08Z</time>
      </trkpt>
      <trkpt lat="43.45377" lon="5.74564">
        <ele>359.83</ele>
        <time>2020-02-18T11:09:22Z</time>
      </trkpt>
      <trkpt lat="43.45393" lon="5.74576">
        <ele>359.81</ele>
        <time>2020-02-18T11:09:34Z</time>
      </trkpt>
      <trkpt lat="43.45401" lon="5.74581">
        <ele>360.09</ele>
        <time>2020-02-18T11:09:39Z</time>
      </trkpt>
      <trkpt lat="43.45424" lon="5.74599">
        <ele>361.15</ele>
        <time>2020-02-18T11:09:54Z</time>
      </trkpt>
      <trkpt lat="43.45434" lon="5.74604">
        <ele>361.41</ele>
        <time>2020-02-18T11:10:01Z</time>
      </trkpt>
      <trkpt lat="43.45438" lon="5.74609">
        <ele>361.58</ele>
        <time>2020-02-18T11:10:05Z</time>
      </trkpt>
      <trkpt lat="43.45455" lon="5.74624">
        <ele>362.51</ele>
        <time>2020-02-18T11:10:19Z</time>
      </trkpt>
      <trkpt lat="43.45469" lon="5.74639">
        <ele>363.22</ele>
        <time>2020-02-18T11:10:30Z</time>
      </trkpt>
      <trkpt lat="43.45476" lon="5.74652">
        <ele>363.6</ele>
        <time>2020-02-18T11:10:39Z</time>
      </trkpt>
      <trkpt lat="43.45478" lon="5.74653">
        <ele>363.65</ele>
        <time>2020-02-18T11:10:41Z</time>
      </trkpt>
      <trkpt lat="43.45481" lon="5.74659">
        <ele>363.59</ele>
        <time>2020-02-18T11:10:45Z</time>
      </trkpt>
      <trkpt lat="43.45483" lon="5.74663">
        <ele>363.53</ele>
        <time>2020-02-18T11:10:48Z</time>
      </trkpt>
      <trkpt lat="43.45488" lon="5.74667">
        <ele>363.32</ele>
        <time>2020-02-18T11:10:52Z</time>
      </trkpt>
      <trkpt lat="43.45503" lon="5.74686">
        <ele>362.93</ele>
        <time>2020-02-18T11:11:06Z</time>
      </trkpt>
      <trkpt lat="43.45506" lon="5.74692">
        <ele>362.7</ele>
        <time>2020-02-18T11:11:10Z</time>
      </trkpt>
      <trkpt lat="43.4552" lon="5.74709">
        <ele>361.71</ele>
        <time>2020-02-18T11:11:24Z</time>
      </trkpt>
      <trkpt lat="43.45542" lon="5.74731">
        <ele>360.01</ele>
        <time>2020-02-18T11:11:44Z</time>
      </trkpt>
      <trkpt lat="43.45552" lon="5.7474">
        <ele>359.55</ele>
        <time>2020-02-18T11:11:52Z</time>
      </trkpt>
      <trkpt lat="43.4558" lon="5.7476">
        <ele>358.93</ele>
        <time>2020-02-18T11:12:15Z</time>
      </trkpt>
      <trkpt lat="43.45605" lon="5.74783">
        <ele>359.32</ele>
        <time>2020-02-18T11:12:34Z</time>
      </trkpt>
      <trkpt lat="43.45627" lon="5.748">
        <ele>360.47</ele>
        <time>2020-02-18T11:12:49Z</time>
      </trkpt>
      <trkpt lat="43.45629" lon="5.74802">
        <ele>360.49</ele>
        <time>2020-02-18T11:12:51Z</time>
      </trkpt>
      <trkpt lat="43.45632" lon="5.74804">
        <ele>360.5</ele>
        <time>2020-02-18T11:12:53Z</time>
      </trkpt>
      <trkpt lat="43.45644" lon="5.74822">
        <ele>361.23</ele>
        <time>2020-02-18T11:13:06Z</time>
      </trkpt>
      <trkpt lat="43.45656" lon="5.74839">
        <ele>362.86</ele>
        <time>2020-02-18T11:13:20Z</time>
      </trkpt>
      <trkpt lat="43.45663" lon="5.74846">
        <ele>363.67</ele>
        <time>2020-02-18T11:13:27Z</time>
      </trkpt>
      <trkpt lat="43.45682" lon="5.74866">
        <ele>363.76</ele>
        <time>2020-02-18T11:13:42Z</time>
      </trkpt>
      <trkpt lat="43.45683" lon="5.74867">
        <ele>363.66</ele>
        <time>2020-02-18T11:13:43Z</time>
      </trkpt>
      <trkpt lat="43.4569" lon="5.74871">
        <ele>363.14</ele>
        <time>2020-02-18T11:13:47Z</time>
      </trkpt>
      <trkpt lat="43.45698" lon="5.74878">
        <ele>362.24</ele>
        <time>2020-02-18T11:13:53Z</time>
      </trkpt>
      <trkpt lat="43.45721" lon="5.74889">
        <ele>363.34</ele>
        <time>2020-02-18T11:14:10Z</time>
      </trkpt>
      <trkpt lat="43.45747" lon="5.74908">
        <ele>366.06</ele>
        <time>2020-02-18T11:14:29Z</time>
      </trkpt>
      <trkpt lat="43.45772" lon="5.74925">
        <ele>368.42</ele>
        <time>2020-02-18T11:14:45Z</time>
      </trkpt>
      <trkpt lat="43.45784" lon="5.74942">
        <ele>369.52</ele>
        <time>2020-02-18T11:14:58Z</time>
      </trkpt>
      <trkpt lat="43.45795" lon="5.74955">
        <ele>370.4</ele>
        <time>2020-02-18T11:15:11Z</time>
      </trkpt>
      <trkpt lat="43.4581" lon="5.74976">
        <ele>371.23</ele>
        <time>2020-02-18T11:15:28Z</time>
      </trkpt>
      <trkpt lat="43.45815" lon="5.74982">
        <ele>371.11</ele>
        <time>2020-02-18T11:15:32Z</time>
      </trkpt>
      <trkpt lat="43.45826" lon="5.74999">
        <ele>371.82</ele>
        <time>2020-02-18T11:15:48Z</time>
      </trkpt>
      <trkpt lat="43.45832" lon="5.75005">
        <ele>372.08</ele>
        <time>2020-02-18T11:15:53Z</time>
      </trkpt>
      <trkpt lat="43.45835" lon="5.7501">
        <ele>372.13</ele>
        <time>2020-02-18T11:15:56Z</time>
      </trkpt>
      <trkpt lat="43.45855" lon="5.75042">
        <ele>372.49</ele>
        <time>2020-02-18T11:16:19Z</time>
      </trkpt>
      <trkpt lat="43.45865" lon="5.75052">
        <ele>372.66</ele>
        <time>2020-02-18T11:16:26Z</time>
      </trkpt>
      <trkpt lat="43.45879" lon="5.7506">
        <ele>373.1</ele>
        <time>2020-02-18T11:16:36Z</time>
      </trkpt>
      <trkpt lat="43.45902" lon="5.75045">
        <ele>373.29</ele>
        <time>2020-02-18T11:16:53Z</time>
      </trkpt>
      <trkpt lat="43.45911" lon="5.75036">
        <ele>373.4</ele>
        <time>2020-02-18T11:17:01Z</time>
      </trkpt>
      <trkpt lat="43.45926" lon="5.75024">
        <ele>372.34</ele>
        <time>2020-02-18T11:17:15Z</time>
      </trkpt>
      <trkpt lat="43.45928" lon="5.75021">
        <ele>372.08</ele>
        <time>2020-02-18T11:17:17Z</time>
      </trkpt>
      <trkpt lat="43.45951" lon="5.75006">
        <ele>368.87</ele>
        <time>2020-02-18T11:17:33Z</time>
      </trkpt>
      <trkpt lat="43.45959" lon="5.75004">
        <ele>367.49</ele>
        <time>2020-02-18T11:17:38Z</time>
      </trkpt>
      <trkpt lat="43.45964" lon="5.75003">
        <ele>366.47</ele>
        <time>2020-02-18T11:17:42Z</time>
      </trkpt>
      <trkpt lat="43.45977" lon="5.75015">
        <ele>364.17</ele>
        <time>2020-02-18T11:17:58Z</time>
      </trkpt>
      <trkpt lat="43.45989" lon="5.75026">
        <ele>363.38</ele>
        <time>2020-02-18T11:18:06Z</time>
      </trkpt>
      <trkpt lat="43.4599" lon="5.75027">
        <ele>363.33</ele>
        <time>2020-02-18T11:18:07Z</time>
      </trkpt>
      <trkpt lat="43.45992" lon="5.75029">
        <ele>363.25</ele>
        <time>2020-02-18T11:18:09Z</time>
      </trkpt>
      <trkpt lat="43.45993" lon="5.7503">
        <ele>363.22</ele>
        <time>2020-02-18T11:18:10Z</time>
      </trkpt>
      <trkpt lat="43.45995" lon="5.75032">
        <ele>363.19</ele>
        <time>2020-02-18T11:18:11Z</time>
      </trkpt>
      <trkpt lat="43.45996" lon="5.75034">
        <ele>363.15</ele>
        <time>2020-02-18T11:18:12Z</time>
      </trkpt>
      <trkpt lat="43.45997" lon="5.75036">
        <ele>363.11</ele>
        <time>2020-02-18T11:18:13Z</time>
      </trkpt>
      <trkpt lat="43.45999" lon="5.75037">
        <ele>363.06</ele>
        <time>2020-02-18T11:18:14Z</time>
      </trkpt>
      <trkpt lat="43.46" lon="5.75038">
        <ele>363.01</ele>
        <time>2020-02-18T11:18:15Z</time>
      </trkpt>
      <trkpt lat="43.46002" lon="5.7504">
        <ele>362.95</ele>
        <time>2020-02-18T11:18:16Z</time>
      </trkpt>
      <trkpt lat="43.46004" lon="5.75042">
        <ele>362.85</ele>
        <time>2020-02-18T11:18:17Z</time>
      </trkpt>
      <trkpt lat="43.46036" lon="5.75058">
        <ele>360.24</ele>
        <time>2020-02-18T11:18:33Z</time>
      </trkpt>
      <trkpt lat="43.46054" lon="5.75056">
        <ele>358.28</ele>
        <time>2020-02-18T11:18:45Z</time>
      </trkpt>
      <trkpt lat="43.46073" lon="5.75036">
        <ele>355.97</ele>
        <time>2020-02-18T11:19:01Z</time>
      </trkpt>
      <trkpt lat="43.46082" lon="5.75023">
        <ele>354.12</ele>
        <time>2020-02-18T11:19:12Z</time>
      </trkpt>
      <trkpt lat="43.46083" lon="5.75018">
        <ele>353.58</ele>
        <time>2020-02-18T11:19:16Z</time>
      </trkpt>
      <trkpt lat="43.46084" lon="5.75016">
        <ele>353.5</ele>
        <time>2020-02-18T11:19:17Z</time>
      </trkpt>
      <trkpt lat="43.46085" lon="5.75015">
        <ele>353.42</ele>
        <time>2020-02-18T11:19:18Z</time>
      </trkpt>
      <trkpt lat="43.46086" lon="5.75013">
        <ele>353.37</ele>
        <time>2020-02-18T11:19:19Z</time>
      </trkpt>
      <trkpt lat="43.46088" lon="5.75012">
        <ele>353.32</ele>
        <time>2020-02-18T11:19:20Z</time>
      </trkpt>
      <trkpt lat="43.46089" lon="5.7501">
        <ele>353.28</ele>
        <time>2020-02-18T11:19:21Z</time>
      </trkpt>
      <trkpt lat="43.46091" lon="5.75008">
        <ele>353.23</ele>
        <time>2020-02-18T11:19:22Z</time>
      </trkpt>
      <trkpt lat="43.46093" lon="5.75007">
        <ele>353.13</ele>
        <time>2020-02-18T11:19:23Z</time>
      </trkpt>
      <trkpt lat="43.46095" lon="5.75005">
        <ele>353.02</ele>
        <time>2020-02-18T11:19:24Z</time>
      </trkpt>
      <trkpt lat="43.46097" lon="5.75001">
        <ele>352.66</ele>
        <time>2020-02-18T11:19:27Z</time>
      </trkpt>
      <trkpt lat="43.46098" lon="5.74999">
        <ele>352.51</ele>
        <time>2020-02-18T11:19:28Z</time>
      </trkpt>
      <trkpt lat="43.46099" lon="5.74998">
        <ele>352.34</ele>
        <time>2020-02-18T11:19:29Z</time>
      </trkpt>
      <trkpt lat="43.46106" lon="5.74974">
        <ele>350.33</ele>
        <time>2020-02-18T11:19:42Z</time>
      </trkpt>
      <trkpt lat="43.46107" lon="5.74973">
        <ele>350.2</ele>
        <time>2020-02-18T11:19:43Z</time>
      </trkpt>
      <trkpt lat="43.46116" lon="5.7495">
        <ele>348.48</ele>
        <time>2020-02-18T11:19:57Z</time>
      </trkpt>
      <trkpt lat="43.46116" lon="5.74947">
        <ele>348.32</ele>
        <time>2020-02-18T11:19:58Z</time>
      </trkpt>
      <trkpt lat="43.46116" lon="5.74945">
        <ele>348.17</ele>
        <time>2020-02-18T11:19:59Z</time>
      </trkpt>
      <trkpt lat="43.46116" lon="5.74942">
        <ele>347.87</ele>
        <time>2020-02-18T11:20:00Z</time>
      </trkpt>
      <trkpt lat="43.46116" lon="5.74941">
        <ele>347.74</ele>
        <time>2020-02-18T11:20:01Z</time>
      </trkpt>
      <trkpt lat="43.46116" lon="5.74939">
        <ele>347.61</ele>
        <time>2020-02-18T11:20:02Z</time>
      </trkpt>
      <trkpt lat="43.46116" lon="5.74937">
        <ele>347.47</ele>
        <time>2020-02-18T11:20:03Z</time>
      </trkpt>
      <trkpt lat="43.46116" lon="5.74935">
        <ele>347.31</ele>
        <time>2020-02-18T11:20:04Z</time>
      </trkpt>
      <trkpt lat="43.46117" lon="5.7492">
        <ele>346.7</ele>
        <time>2020-02-18T11:20:10Z</time>
      </trkpt>
      <trkpt lat="43.46117" lon="5.74917">
        <ele>346.68</ele>
        <time>2020-02-18T11:20:11Z</time>
      </trkpt>
      <trkpt lat="43.46117" lon="5.74915">
        <ele>346.63</ele>
        <time>2020-02-18T11:20:12Z</time>
      </trkpt>
      <trkpt lat="43.46117" lon="5.74913">
        <ele>346.57</ele>
        <time>2020-02-18T11:20:13Z</time>
      </trkpt>
      <trkpt lat="43.46117" lon="5.74911">
        <ele>346.57</ele>
        <time>2020-02-18T11:20:14Z</time>
      </trkpt>
      <trkpt lat="43.46116" lon="5.74901">
        <ele>346.3</ele>
        <time>2020-02-18T11:20:20Z</time>
      </trkpt>
      <trkpt lat="43.46116" lon="5.74899">
        <ele>346.23</ele>
        <time>2020-02-18T11:20:21Z</time>
      </trkpt>
      <trkpt lat="43.46116" lon="5.74886">
        <ele>345.65</ele>
        <time>2020-02-18T11:20:28Z</time>
      </trkpt>
      <trkpt lat="43.46115" lon="5.74884">
        <ele>345.59</ele>
        <time>2020-02-18T11:20:29Z</time>
      </trkpt>
      <trkpt lat="43.46115" lon="5.74881">
        <ele>345.53</ele>
        <time>2020-02-18T11:20:30Z</time>
      </trkpt>
      <trkpt lat="43.46115" lon="5.74879">
        <ele>345.46</ele>
        <time>2020-02-18T11:20:31Z</time>
      </trkpt>
      <trkpt lat="43.46115" lon="5.74877">
        <ele>345.4</ele>
        <time>2020-02-18T11:20:32Z</time>
      </trkpt>
      <trkpt lat="43.46115" lon="5.74874">
        <ele>345.31</ele>
        <time>2020-02-18T11:20:33Z</time>
      </trkpt>
      <trkpt lat="43.46115" lon="5.74872">
        <ele>345.23</ele>
        <time>2020-02-18T11:20:34Z</time>
      </trkpt>
      <trkpt lat="43.46115" lon="5.74869">
        <ele>345.14</ele>
        <time>2020-02-18T11:20:35Z</time>
      </trkpt>
      <trkpt lat="43.46116" lon="5.74865">
        <ele>345.03</ele>
        <time>2020-02-18T11:20:36Z</time>
      </trkpt>
      <trkpt lat="43.46117" lon="5.74861">
        <ele>344.94</ele>
        <time>2020-02-18T11:20:37Z</time>
      </trkpt>
      <trkpt lat="43.46117" lon="5.74859">
        <ele>344.85</ele>
        <time>2020-02-18T11:20:38Z</time>
      </trkpt>
      <trkpt lat="43.46116" lon="5.74842">
        <ele>343.84</ele>
        <time>2020-02-18T11:20:49Z</time>
      </trkpt>
      <trkpt lat="43.46116" lon="5.74831">
        <ele>343.22</ele>
        <time>2020-02-18T11:20:54Z</time>
      </trkpt>
      <trkpt lat="43.46118" lon="5.74811">
        <ele>342.5</ele>
        <time>2020-02-18T11:21:04Z</time>
      </trkpt>
      <trkpt lat="43.46127" lon="5.74795">
        <ele>343.06</ele>
        <time>2020-02-18T11:21:11Z</time>
      </trkpt>
      <trkpt lat="43.46132" lon="5.74782">
        <ele>342.09</ele>
        <time>2020-02-18T11:21:26Z</time>
      </trkpt>
      <trkpt lat="43.46134" lon="5.74782">
        <ele>342.03</ele>
        <time>2020-02-18T11:21:29Z</time>
      </trkpt>
      <trkpt lat="43.46137" lon="5.74789">
        <ele>342.12</ele>
        <time>2020-02-18T11:21:35Z</time>
      </trkpt>
      <trkpt lat="43.46155" lon="5.7479">
        <ele>343.63</ele>
        <time>2020-02-18T11:21:48Z</time>
      </trkpt>
      <trkpt lat="43.46158" lon="5.7479">
        <ele>343.61</ele>
        <time>2020-02-18T11:21:50Z</time>
      </trkpt>
      <trkpt lat="43.46167" lon="5.74789">
        <ele>343.5</ele>
        <time>2020-02-18T11:21:55Z</time>
      </trkpt>
      <trkpt lat="43.4619" lon="5.74781">
        <ele>341.28</ele>
        <time>2020-02-18T11:22:11Z</time>
      </trkpt>
      <trkpt lat="43.4621" lon="5.74767">
        <ele>338.99</ele>
        <time>2020-02-18T11:22:26Z</time>
      </trkpt>
      <trkpt lat="43.46235" lon="5.74756">
        <ele>337.6</ele>
        <time>2020-02-18T11:22:42Z</time>
      </trkpt>
      <trkpt lat="43.46263" lon="5.74746">
        <ele>335.5</ele>
        <time>2020-02-18T11:23:01Z</time>
      </trkpt>
      <trkpt lat="43.46283" lon="5.74742">
        <ele>334.53</ele>
        <time>2020-02-18T11:23:15Z</time>
      </trkpt>
      <trkpt lat="43.46301" lon="5.74735">
        <ele>333.74</ele>
        <time>2020-02-18T11:23:31Z</time>
      </trkpt>
      <trkpt lat="43.46304" lon="5.74735">
        <ele>333.8</ele>
        <time>2020-02-18T11:23:33Z</time>
      </trkpt>
      <trkpt lat="43.46324" lon="5.74727">
        <ele>332.69</ele>
        <time>2020-02-18T11:23:49Z</time>
      </trkpt>
      <trkpt lat="43.46344" lon="5.74719">
        <ele>331.34</ele>
        <time>2020-02-18T11:24:06Z</time>
      </trkpt>
      <trkpt lat="43.46365" lon="5.74708">
        <ele>330.02</ele>
        <time>2020-02-18T11:24:22Z</time>
      </trkpt>
      <trkpt lat="43.46367" lon="5.74707">
        <ele>329.97</ele>
        <time>2020-02-18T11:24:23Z</time>
      </trkpt>
      <trkpt lat="43.46399" lon="5.74689">
        <ele>328.58</ele>
        <time>2020-02-18T11:24:40Z</time>
      </trkpt>
      <trkpt lat="43.46421" lon="5.7468">
        <ele>327.06</ele>
        <time>2020-02-18T11:24:56Z</time>
      </trkpt>
      <trkpt lat="43.46446" lon="5.7467">
        <ele>325.69</ele>
        <time>2020-02-18T11:25:11Z</time>
      </trkpt>
      <trkpt lat="43.46447" lon="5.7467">
        <ele>325.61</ele>
        <time>2020-02-18T11:25:12Z</time>
      </trkpt>
      <trkpt lat="43.46451" lon="5.7467">
        <ele>325.35</ele>
        <time>2020-02-18T11:25:15Z</time>
      </trkpt>
      <trkpt lat="43.46461" lon="5.74669">
        <ele>324.6</ele>
        <time>2020-02-18T11:25:22Z</time>
      </trkpt>
      <trkpt lat="43.46487" lon="5.74658">
        <ele>322.1</ele>
        <time>2020-02-18T11:25:40Z</time>
      </trkpt>
      <trkpt lat="43.46517" lon="5.74638">
        <ele>320.16</ele>
        <time>2020-02-18T11:25:57Z</time>
      </trkpt>
      <trkpt lat="43.46539" lon="5.74633">
        <ele>319.33</ele>
        <time>2020-02-18T11:26:11Z</time>
      </trkpt>
      <trkpt lat="43.4657" lon="5.74622">
        <ele>317.92</ele>
        <time>2020-02-18T11:26:25Z</time>
      </trkpt>
      <trkpt lat="43.46586" lon="5.74619">
        <ele>316.49</ele>
        <time>2020-02-18T11:26:36Z</time>
      </trkpt>
      <trkpt lat="43.46607" lon="5.7461">
        <ele>314.5</ele>
        <time>2020-02-18T11:26:50Z</time>
      </trkpt>
      <trkpt lat="43.46623" lon="5.74606">
        <ele>313.56</ele>
        <time>2020-02-18T11:27:03Z</time>
      </trkpt>
      <trkpt lat="43.46642" lon="5.74604">
        <ele>312.34</ele>
        <time>2020-02-18T11:27:16Z</time>
      </trkpt>
      <trkpt lat="43.46648" lon="5.74604">
        <ele>311.82</ele>
        <time>2020-02-18T11:27:19Z</time>
      </trkpt>
      <trkpt lat="43.4667" lon="5.74602">
        <ele>310.4</ele>
        <time>2020-02-18T11:27:29Z</time>
      </trkpt>
      <trkpt lat="43.46677" lon="5.74594">
        <ele>309.37</ele>
        <time>2020-02-18T11:27:36Z</time>
      </trkpt>
      <trkpt lat="43.46686" lon="5.74579">
        <ele>308.52</ele>
        <time>2020-02-18T11:27:46Z</time>
      </trkpt>
      <trkpt lat="43.4669" lon="5.74573">
        <ele>308.48</ele>
        <time>2020-02-18T11:27:50Z</time>
      </trkpt>
      <trkpt lat="43.46693" lon="5.74562">
        <ele>307.85</ele>
        <time>2020-02-18T11:27:57Z</time>
      </trkpt>
      <trkpt lat="43.46695" lon="5.74548">
        <ele>307.63</ele>
        <time>2020-02-18T11:28:05Z</time>
      </trkpt>
      <trkpt lat="43.467" lon="5.74544">
        <ele>307.52</ele>
        <time>2020-02-18T11:28:10Z</time>
      </trkpt>
      <trkpt lat="43.46705" lon="5.74533">
        <ele>307.34</ele>
        <time>2020-02-18T11:28:16Z</time>
      </trkpt>
      <trkpt lat="43.4671" lon="5.74527">
        <ele>307.07</ele>
        <time>2020-02-18T11:28:20Z</time>
      </trkpt>
    </trkseg>
  </trk>
</gpx>